M I D A S
Marine Information and Data Acquisition System
Tripno 1530 of the Zeeleeuw from 2008-07-31 07:58:34 to 2008-07-31 15:05:41
Back to CruiseResearch ActivitiesStationsMapUnderway DataData graphs

EquipmentUnitsComment
TimeDGPSUTC
LatitudeDGPSDM.mWGS84
LongitudeDGPSDM.mWGS84
TemperatureSBE03/SBE38deg celciusITS90
ConductivitySBE21S/mITS90
SalinitySBE21 Practical Salinity Units
ChlorophylAChelsea fluorimeterg/lCalibrated in Aceton
Missing or incorrect values are displayed as -999
Sea surface data collected by the RV Zeeleeuw from 2008-07-31 07:56:53 to 2008-07-31 15:08:53
                                                                                    Next 1000 lines
Time Latitude Longitude Temperature Conductivity Salinity ChlorophylA
2008-07-31 07:57:03 51°13.624 2°56.044 24.0804 0.015555 0.076463 -1.522929
2008-07-31 07:57:08 51°13.625 2°56.042 24.0805 0.015555 0.076463 -1.488105
2008-07-31 07:57:13 51°13.626 2°56.039 24.0865 0.015555 0.076463 -1.522929
2008-07-31 07:57:18 51°13.627 2°56.035 24.0875 0.015555 0.076463 -1.522929
2008-07-31 07:57:23 51°13.628 2°56.031 24.0895 0.015555 0.076463 -1.522929
2008-07-31 07:57:28 51°13.63 2°56.026 24.0856 0.015555 0.076463 -1.522929
2008-07-31 07:57:33 51°13.632 2°56.021 24.0865 0.015555 0.076463 -1.522929
2008-07-31 07:57:38 51°13.634 2°56.015 24.0883 0.015555 0.076463 -1.522929
2008-07-31 07:57:44 51°13.636 2°56.008 24.0883 0.015555 0.076463 -1.488105
2008-07-31 07:57:49 51°13.638 2°56.001 24.0894 0.015555 0.076463 -1.522929
2008-07-31 07:57:53 51°13.64 2°55.996 24.0885 0.015555 0.076463 -1.522929
2008-07-31 07:57:58 51°13.642 2°55.989 24.0905 0.015555 0.076463 -1.522929
2008-07-31 07:58:03 51°13.644 2°55.982 24.0903 0.015555 0.076463 -1.522929
2008-07-31 07:58:09 51°13.647 2°55.974 24.0914 0.015555 0.076463 -1.488105
2008-07-31 07:58:13 51°13.649 2°55.968 24.0906 0.015555 0.076463 -1.488105
2008-07-31 07:58:18 51°13.65 2°55.96 24.0901 0.015555 0.076464 -1.522929
2008-07-31 07:58:23 51°13.652 2°55.953 24.0915 0.015555 0.076463 -1.522929
2008-07-31 07:58:28 51°13.654 2°55.945 24.0904 0.015555 0.076463 -1.522929
2008-07-31 07:58:34 51°13.657 2°55.935 24.0945 0.015555 0.076463 -1.522929
2008-07-31 07:58:38 51°13.659 2°55.929 24.0937 0.015555 0.076463 -1.522929
2008-07-31 07:58:44 51°13.661 2°55.92 24.0936 0.015555 0.076463 -1.522929
2008-07-31 07:58:49 51°13.664 2°55.912 24.0932 0.015555 0.076463 -1.522929
2008-07-31 07:58:54 51°13.666 2°55.904 24.0949 0.015555 0.076463 -1.522929
2008-07-31 07:58:59 51°13.668 2°55.897 24.0939 0.015555 0.076463 -1.522929
2008-07-31 07:59:03 51°13.67 2°55.891 24.0954 0.015555 0.076463 -1.522929
2008-07-31 07:59:08 51°13.673 2°55.884 24.0955 0.015555 0.076463 -1.522929
2008-07-31 07:59:14 51°13.675 2°55.876 24.0946 0.015555 0.076462 -1.522929
2008-07-31 07:59:18 51°13.677 2°55.871 24.0943 0.015555 0.076463 -1.488105
2008-07-31 07:59:23 51°13.68 2°55.864 24.0951 0.015555 0.076463 -1.522929
2008-07-31 07:59:28 51°13.683 2°55.857 24.0954 0.015555 0.076463 -1.522929
2008-07-31 07:59:34 51°13.686 2°55.848 24.0963 0.015555 0.076463 -1.522929
2008-07-31 07:59:39 51°13.688 2°55.842 24.0983 0.015555 0.076462 -1.522929
2008-07-31 07:59:43 51°13.69 2°55.836 24.0981 0.015555 0.076463 -1.522929
2008-07-31 07:59:48 51°13.693 2°55.83 24.0977 0.015555 0.076462 -1.522929
2008-07-31 07:59:54 51°13.696 2°55.822 24.0985 0.015555 0.076463 -1.488105
2008-07-31 07:59:59 51°13.698 2°55.816 24.0984 0.015555 0.076463 -1.522929
2008-07-31 08:00:04 51°13.7 2°55.809 24.0988 0.015555 0.076463 -1.522929
2008-07-31 08:00:09 51°13.702 2°55.804 24.0993 0.015555 0.076462 -1.522929
2008-07-31 08:00:13 51°13.704 2°55.799 24.0992 0.015555 0.076463 -1.522929
2008-07-31 08:00:18 51°13.706 2°55.793 24.1007 0.015555 0.076462 -1.488105
2008-07-31 08:00:24 51°13.708 2°55.786 24.1004 0.015555 0.076462 -1.488105
2008-07-31 08:00:29 51°13.709 2°55.78 24.1006 0.015555 0.076462 -1.488105
2008-07-31 08:00:33 51°13.711 2°55.776 24.1018 0.015555 0.076462 -1.522929
2008-07-31 08:00:38 51°13.712 2°55.77 24.1024 0.015555 0.076461 -1.522929
2008-07-31 08:00:44 51°13.714 2°55.764 24.1021 0.015555 0.076461 -1.522929
2008-07-31 08:00:49 51°13.716 2°55.759 24.1032 0.015555 0.076461 -1.488105
2008-07-31 08:00:53 51°13.717 2°55.755 24.103 0.015555 0.076461 -1.522929
2008-07-31 08:00:58 51°13.718 2°55.751 24.1046 0.015555 0.076461 -1.522929
2008-07-31 08:01:03 51°13.719 2°55.746 24.1043 0.015555 0.076461 -1.522929
2008-07-31 08:01:08 51°13.72 2°55.741 24.1048 0.015555 0.076461 -1.522929
2008-07-31 08:01:13 51°13.721 2°55.737 24.1053 0.015555 0.07646 -1.522929
2008-07-31 08:01:18 51°13.722 2°55.732 24.1067 0.015555 0.07646 -1.522929
2008-07-31 08:01:23 51°13.722 2°55.728 24.1062 0.015555 0.07646 -1.522929
2008-07-31 08:01:28 51°13.723 2°55.724 24.1068 0.015555 0.07646 -1.522929
2008-07-31 08:01:33 51°13.723 2°55.72 24.1065 0.015555 0.07646 -1.522929
2008-07-31 08:01:38 51°13.724 2°55.716 24.1077 0.015555 0.07646 -1.522929
2008-07-31 08:01:43 51°13.724 2°55.712 24.1075 0.015555 0.07646 -1.522929
2008-07-31 08:01:48 51°13.724 2°55.709 24.1089 0.015555 0.07646 -1.522929
2008-07-31 08:01:53 51°13.724 2°55.706 24.1092 0.015555 0.07646 -1.522929
2008-07-31 08:01:59 51°13.725 2°55.702 24.1088 0.015555 0.076459 -1.522929
2008-07-31 08:02:04 51°13.725 2°55.7 24.1095 0.015555 0.076459 -1.522929
2008-07-31 08:02:09 51°13.725 2°55.698 24.1111 0.015555 0.076459 -1.522929
2008-07-31 08:02:14 51°13.725 2°55.697 24.1105 0.015555 0.076459 -1.522929
2008-07-31 08:02:19 51°13.725 2°55.695 24.1118 0.015555 0.076459 -1.522929
2008-07-31 08:02:24 51°13.725 2°55.694 24.1112 0.015555 0.076459 -1.522929
2008-07-31 08:02:28 51°13.725 2°55.693 24.1123 0.015555 0.076459 -1.522929
2008-07-31 08:02:33 51°13.726 2°55.692 24.113 0.015555 0.076459 -1.488105
2008-07-31 08:02:38 51°13.726 2°55.692 24.1135 0.015555 0.076459 -1.522929
2008-07-31 08:02:43 51°13.726 2°55.691 24.1132 0.015555 0.076459 -1.522929
2008-07-31 08:02:48 51°13.726 2°55.691 24.1145 0.015555 0.076459 -1.522929
2008-07-31 08:02:53 51°13.726 2°55.691 24.1142 0.015555 0.076458 -1.522929
2008-07-31 08:02:58 51°13.727 2°55.691 24.1156 0.015555 0.076458 -1.522929
2008-07-31 08:03:03 51°13.727 2°55.692 24.1161 0.015555 0.076458 -1.488105
2008-07-31 08:03:08 51°13.728 2°55.692 24.1168 0.015555 0.076458 -1.488105
2008-07-31 08:03:14 51°13.729 2°55.693 24.1165 0.015555 0.076458 -1.522929
2008-07-31 08:03:19 51°13.729 2°55.693 24.1172 0.015555 0.076458 -1.522929
2008-07-31 08:03:23 51°13.73 2°55.694 24.1174 0.015555 0.076457 -1.488105
2008-07-31 08:03:29 51°13.731 2°55.694 24.1184 0.015555 0.076458 -1.522929
2008-07-31 08:03:34 51°13.731 2°55.694 24.1182 0.015555 0.076458 -1.522929
2008-07-31 08:03:39 51°13.732 2°55.694 24.1184 0.015555 0.076458 -1.522929
2008-07-31 08:03:43 51°13.732 2°55.694 24.1194 0.015555 0.076457 -1.522929
2008-07-31 08:03:48 51°13.733 2°55.694 24.1204 0.015555 0.076457 -1.522929
2008-07-31 08:03:53 51°13.733 2°55.694 24.1207 0.015555 0.076457 -1.488105
2008-07-31 08:03:59 51°13.733 2°55.694 24.1219 0.015555 0.076457 -1.488105
2008-07-31 08:04:04 51°13.734 2°55.694 24.1209 0.015555 0.076457 -1.488105
2008-07-31 08:04:08 51°13.734 2°55.693 24.1224 0.015555 0.076457 -1.522929
2008-07-31 08:04:13 51°13.734 2°55.693 24.1231 0.015555 0.076457 -1.488105
2008-07-31 08:04:18 51°13.734 2°55.692 24.1229 0.015555 0.076457 -1.488105
2008-07-31 08:04:23 51°13.734 2°55.692 24.0745 0.015555 0.076457 -1.488105
2008-07-31 08:04:28 51°13.734 2°55.691 23.4279 0.015555 0.076457 -1.488105
2008-07-31 08:04:33 51°13.734 2°55.69 22.5224 0.015863 0.077929 -1.348809
2008-07-31 08:04:38 51°13.734 2°55.69 22.0326 0.017716 0.086881 -1.139864
2008-07-31 08:04:44 51°13.734 2°55.689 21.6665 0.553436 2.987093 -1.10504
2008-07-31 08:04:48 51°13.734 2°55.689 21.5139 4.909743 32.159589 0.845107
2008-07-31 08:04:53 51°13.733 2°55.688 21.4142 4.722849 31.097644 1.611236
2008-07-31 08:04:58 51°13.733 2°55.687 21.3365 4.274356 28.263694 3.143494
2008-07-31 08:05:03 51°13.733 2°55.687 21.2543 4.274356 28.263694 3.143494
2008-07-31 08:05:08 51°13.733 2°55.686 21.1978 4.458798 29.904658 5.163289
2008-07-31 08:05:14 51°13.733 2°55.686 21.1602 4.406175 29.805019 4.745401
2008-07-31 08:05:19 51°13.733 2°55.685 21.0871 4.337886 29.591623 4.57128
2008-07-31 08:05:23 51°13.733 2°55.685 21.0679 4.222081 28.922728 4.431984
2008-07-31 08:05:29 51°13.733 2°55.684 21.0706 4.262344 29.365447 4.501632
2008-07-31 08:05:34 51°13.733 2°55.684 21.0713 4.262344 29.365447 4.501632
2008-07-31 08:05:38 51°13.733 2°55.684 21.0475 4.240659 29.287645 4.466808
2008-07-31 08:05:43 51°13.733 2°55.683 21.031 4.22271 29.267622 4.57128
2008-07-31 08:05:49 51°13.733 2°55.683 21.028 4.202168 29.173517 4.640929
2008-07-31 08:05:53 51°13.733 2°55.683 21.0262 4.188577 29.119135 4.640929
2008-07-31 08:05:58 51°13.732 2°55.682 21.0152 4.188577 29.119135 4.640929
2008-07-31 08:06:03 51°13.732 2°55.682 21.0101 4.192002 29.18374 4.640929
2008-07-31 08:06:08 51°13.732 2°55.681 21.0015 4.17976 29.109365 4.640929
2008-07-31 08:06:13 51°13.732 2°55.681 20.98 4.167414 29.032586 4.640929
2008-07-31 08:06:18 51°13.732 2°55.681 20.9768 4.171564 29.081769 4.640929
2008-07-31 08:06:23 51°13.732 2°55.681 20.9853 4.174988 29.117637 4.640929
2008-07-31 08:06:28 51°13.732 2°55.68 20.9838 4.174988 29.117637 4.640929
2008-07-31 08:06:34 51°13.732 2°55.68 20.9894 4.167518 29.070934 4.640929
2008-07-31 08:06:39 51°13.732 2°55.68 20.9661 4.17115 29.107919 4.640929
2008-07-31 08:06:43 51°13.732 2°55.679 20.9801 4.168556 29.09704 4.675753
2008-07-31 08:06:48 51°13.732 2°55.679 20.962 4.161709 29.053077 4.640929
2008-07-31 08:06:53 51°13.733 2°55.679 20.9596 4.168557 29.114593 4.675753
2008-07-31 08:06:59 51°13.733 2°55.678 20.9649 4.162851 29.075361 4.675753
2008-07-31 08:07:03 51°13.734 2°55.678 20.9654 4.162851 29.075361 4.675753
2008-07-31 08:07:08 51°13.737 2°55.677 20.9434 4.160672 29.059443 4.675753
2008-07-31 08:07:13 51°13.74 2°55.676 20.9457 4.166067 29.108134 4.675753
2008-07-31 08:07:18 51°13.745 2°55.675 20.9336 4.161502 29.076737 4.675753
2008-07-31 08:07:24 51°13.752 2°55.673 20.9404 4.151646 29.003649 4.675753
2008-07-31 08:07:29 51°13.758 2°55.671 20.9312 4.157145 29.047985 4.675753
2008-07-31 08:07:34 51°13.765 2°55.668 20.9406 4.157145 29.047985 4.675753
2008-07-31 08:07:39 51°13.773 2°55.665 20.9366 4.147497 28.978567 4.675753
2008-07-31 08:07:44 51°13.78 2°55.661 20.9078 4.158183 29.068967 4.710577
2008-07-31 08:07:49 51°13.789 2°55.656 20.9125 4.129031 28.847218 4.710577
2008-07-31 08:07:54 51°13.797 2°55.651 20.9008 4.160673 29.097663 4.710577
2008-07-31 08:07:58 51°13.804 2°55.646 20.8957 4.160673 29.097663 4.710577
2008-07-31 08:08:03 51°13.813 2°55.64 20.9131 4.162748 29.117451 4.675753
2008-07-31 08:08:08 51°13.822 2°55.634 20.9166 4.163266 29.1246 4.675753
2008-07-31 08:08:13 51°13.832 2°55.626 20.916 4.151543 29.036362 4.815049
2008-07-31 08:08:18 51°13.841 2°55.62 20.9117 4.170321 29.188927 4.919521
2008-07-31 08:08:23 51°13.85 2°55.613 20.8969 4.18412 29.302284 5.093641
2008-07-31 08:08:28 51°13.858 2°55.606 20.8846 4.18412 29.302284 5.093641
2008-07-31 08:08:33 51°13.866 2°55.6 20.8804 4.187025 29.329128 5.302586
2008-07-31 08:08:38 51°13.874 2°55.594 20.87 4.166691 29.172552 5.372234
2008-07-31 08:08:43 51°13.882 2°55.588 20.8482 4.15559 29.084954 5.51153
2008-07-31 08:08:48 51°13.89 2°55.582 20.8423 4.153722 29.072983 5.616002
2008-07-31 08:08:53 51°13.897 2°55.576 20.8322 4.142622 28.988007 5.650826
2008-07-31 08:08:58 51°13.905 2°55.57 20.8308 4.136813 28.94892 5.720474
2008-07-31 08:09:03 51°13.912 2°55.565 20.8152 4.136813 28.94892 5.720474
2008-07-31 08:09:08 51°13.92 2°55.559 20.8095 4.113575 28.774564 5.720474
2008-07-31 08:09:13 51°13.927 2°55.553 20.8073 4.139199 28.979899 5.755298
2008-07-31 08:09:18 51°13.935 2°55.548 20.7935 4.11648 28.813093 5.720474
2008-07-31 08:09:23 51°13.942 2°55.542 20.7864 4.153931 29.113469 5.68565
2008-07-31 08:09:28 51°13.95 2°55.535 20.7854 4.153931 29.113469 5.68565
2008-07-31 08:09:33 51°13.958 2°55.529 20.7738 4.144283 29.045411 5.616002
2008-07-31 08:09:38 51°13.966 2°55.523 20.7737 4.168455 29.240967 5.581178
2008-07-31 08:09:44 51°13.975 2°55.516 20.7726 4.168974 29.252327 5.51153
2008-07-31 08:09:48 51°13.982 2°55.511 20.7673 4.191384 29.434412 5.407058
2008-07-31 08:09:53 51°13.989 2°55.505 20.7656 4.208296 29.573137 5.33741
2008-07-31 08:09:58 51°13.997 2°55.498 20.7635 4.208296 29.573137 5.33741
2008-07-31 08:10:03 51°14.005 2°55.492 20.7625 4.217427 29.652077 5.232937
2008-07-31 08:10:08 51°14.013 2°55.485 20.7632 4.211098 29.605654 5.232937
2008-07-31 08:10:13 51°14.022 2°55.479 20.7648 4.240047 29.837955 5.093641
2008-07-31 08:10:18 51°14.03 2°55.473 20.7564 4.234029 29.796066 5.128465
2008-07-31 08:10:23 51°14.038 2°55.467 20.7539 4.239114 29.838627 5.093641
2008-07-31 08:10:28 51°14.046 2°55.461 20.7606 4.239114 29.838627 5.093641
2008-07-31 08:10:33 51°14.055 2°55.455 20.7637 4.249801 29.924125 5.058817
2008-07-31 08:10:38 51°14.063 2°55.449 20.7672 4.251462 29.940373 4.989169
2008-07-31 08:10:43 51°14.072 2°55.443 20.7697 4.251047 29.938185 4.919521
2008-07-31 08:10:48 51°14.08 2°55.437 20.7646 4.253848 29.962331 4.884697
2008-07-31 08:10:53 51°14.088 2°55.43 20.7545 4.242019 29.870509 4.884697
2008-07-31 08:10:58 51°14.097 2°55.424 20.7538 4.199997 29.541903 4.849873
2008-07-31 08:11:03 51°14.105 2°55.418 20.7496 4.199997 29.541903 4.849873
2008-07-31 08:11:08 51°14.114 2°55.412 20.7455 4.246273 29.904448 4.815049
2008-07-31 08:11:13 51°14.122 2°55.405 20.7506 4.23102 29.783108 4.815049
2008-07-31 08:11:18 51°14.13 2°55.399 20.7404 4.235482 29.817592 4.815049
2008-07-31 08:11:24 51°14.14 2°55.391 20.7429 4.240566 29.860172 4.745401
2008-07-31 08:11:28 51°14.146 2°55.385 20.7344 4.240566 29.860172 4.745401
2008-07-31 08:11:33 51°14.154 2°55.377 20.7288 4.240567 29.862309 4.710577
2008-07-31 08:11:38 51°14.162 2°55.37 20.7268 4.248141 29.924468 4.710577
2008-07-31 08:11:44 51°14.172 2°55.361 20.728 4.255716 29.987193 4.745401
2008-07-31 08:11:48 51°14.178 2°55.354 20.7354 4.24783 29.925235 4.745401
2008-07-31 08:11:53 51°14.185 2°55.346 20.7346 4.245859 29.913495 4.815049
2008-07-31 08:11:58 51°14.193 2°55.338 20.7331 4.245859 29.913495 4.815049
2008-07-31 08:12:03 51°14.2 2°55.329 20.7324 4.264744 30.064598 4.815049
2008-07-31 08:12:08 51°14.208 2°55.32 20.7395 4.265886 30.077341 4.919521
2008-07-31 08:12:13 51°14.215 2°55.311 20.7372 4.26298 30.057185 5.023993
2008-07-31 08:12:18 51°14.223 2°55.302 20.7386 4.27481 30.151846 5.128465
2008-07-31 08:12:23 51°14.23 2°55.292 20.7367 4.268999 30.105594 5.302586
2008-07-31 08:12:28 51°14.237 2°55.283 20.7344 4.271386 30.124368 5.476706
2008-07-31 08:12:33 51°14.244 2°55.273 20.7378 4.271386 30.124368 5.476706
2008-07-31 08:12:39 51°14.253 2°55.261 20.7397 4.263811 30.064251 5.650826
2008-07-31 08:12:43 51°14.258 2°55.254 20.7307 4.259245 30.027276 5.755298
2008-07-31 08:12:49 51°14.267 2°55.242 20.7294 4.250632 29.959574 5.929418
2008-07-31 08:12:54 51°14.274 2°55.231 20.7287 4.249906 29.952793 6.033891
2008-07-31 08:12:59 51°14.28 2°55.221 20.727 4.249906 29.952793 6.033891
2008-07-31 08:13:04 51°14.287 2°55.211 20.7314 4.234652 29.834021 6.103539
2008-07-31 08:13:08 51°14.292 2°55.202 20.7335 4.25084 29.961742 6.138363
2008-07-31 08:13:13 51°14.299 2°55.191 20.7297 4.245029 29.916076 6.277659
2008-07-31 08:13:18 51°14.305 2°55.18 20.7273 4.258415 30.022899 6.347307
2008-07-31 08:13:23 51°14.311 2°55.169 20.7297 4.24451 29.914677 6.416955
2008-07-31 08:13:28 51°14.317 2°55.158 20.7279 4.24451 29.914677 6.416955
2008-07-31 08:13:33 51°14.324 2°55.146 20.7309 4.266093 30.085975 6.486603
2008-07-31 08:13:38 51°14.329 2°55.134 20.7375 4.265782 30.083526 6.521427
2008-07-31 08:13:43 51°14.336 2°55.122 20.7365 4.260075 30.038642 6.521427
2008-07-31 08:13:48 51°14.342 2°55.11 20.7391 4.272839 30.139573 6.6259
2008-07-31 08:13:53 51°14.348 2°55.096 20.7375 4.273876 30.148817 6.660724
2008-07-31 08:13:58 51°14.354 2°55.083 20.7422 4.273876 30.148817 6.660724
2008-07-31 08:14:03 51°14.36 2°55.068 20.7453 4.276263 30.167597 6.660724
2008-07-31 08:14:08 51°14.367 2°55.053 20.749 4.286537 30.248452 6.695548
2008-07-31 08:14:13 51°14.373 2°55.038 20.752 4.295565 30.317362 6.80002
2008-07-31 08:14:18 51°14.38 2°55.022 20.7487 4.304075 30.382744 6.904492
2008-07-31 08:14:23 51°14.388 2°55.006 20.7479 4.298574 30.338343 7.008964
2008-07-31 08:14:29 51°14.397 2°54.986 20.7485 4.310094 30.427976 7.008964
2008-07-31 08:14:33 51°14.404 2°54.973 20.7473 4.310094 30.427976 7.008964
2008-07-31 08:14:38 51°14.413 2°54.956 20.7435 4.314764 30.46313 7.078612
2008-07-31 08:14:43 51°14.423 2°54.94 20.7503 4.328982 30.573529 7.14826
2008-07-31 08:14:48 51°14.434 2°54.924 20.7569 4.329604 30.576794 7.217908
2008-07-31 08:14:53 51°14.445 2°54.909 20.7674 4.345172 30.69788 7.217908
2008-07-31 08:14:58 51°14.457 2°54.894 20.7667 4.335001 30.617689 7.217908
2008-07-31 08:15:03 51°14.47 2°54.881 20.7641 4.335001 30.617689 7.217908
2008-07-31 08:15:08 51°14.483 2°54.866 20.7732 4.359184 30.808952 7.322381
2008-07-31 08:15:13 51°14.496 2°54.853 20.7684 4.370186 30.896329 7.496501
2008-07-31 08:15:18 51°14.51 2°54.839 20.7659 4.375271 30.934816 7.705445
2008-07-31 08:15:23 51°14.523 2°54.826 20.7681 4.379942 30.968365 7.635797
2008-07-31 08:15:28 51°14.538 2°54.813 20.7693 4.379942 30.968365 7.635797
2008-07-31 08:15:33 51°14.552 2°54.8 20.7609 4.396134 31.092901 7.496501
2008-07-31 08:15:38 51°14.566 2°54.787 20.7601 4.397795 31.103792 7.322381
2008-07-31 08:15:43 51°14.581 2°54.774 20.7583 4.402985 31.143118 7.078612
2008-07-31 08:15:48 51°14.595 2°54.762 20.7553 4.416583 31.24945 6.834844
2008-07-31 08:15:53 51°14.61 2°54.75 20.7562 4.429766 31.353109 6.591076
2008-07-31 08:15:58 51°14.625 2°54.738 20.7604 4.42987 31.35393 6.451779
2008-07-31 08:16:03 51°14.64 2°54.728 20.7599 4.42987 31.35393 6.451779
2008-07-31 08:16:08 51°14.655 2°54.718 20.7596 4.437759 31.417449 6.277659
2008-07-31 08:16:13 51°14.671 2°54.709 20.7559 4.431323 31.36823 6.103539
2008-07-31 08:16:18 51°14.686 2°54.7 20.7595 4.447725 31.499676 5.929418
2008-07-31 08:16:23 51°14.702 2°54.692 20.7577 4.428728 31.351076 5.824946
2008-07-31 08:16:28 51°14.718 2°54.685 20.7571 4.452085 31.535314 5.720474
2008-07-31 08:16:33 51°14.733 2°54.677 20.7589 4.452085 31.535314 5.720474
2008-07-31 08:16:38 51°14.749 2°54.669 20.7522 4.449697 31.516415 5.68565
2008-07-31 08:16:43 51°14.765 2°54.66 20.7459 4.465477 31.641342 5.650826
2008-07-31 08:16:49 51°14.783 2°54.65 20.7393 4.469733 31.67562 5.616002
2008-07-31 08:16:53 51°14.796 2°54.642 20.7351 4.462985 31.622178 5.616002
2008-07-31 08:16:58 51°14.811 2°54.634 20.7358 4.462985 31.622178 5.616002
2008-07-31 08:17:03 51°14.827 2°54.626 20.7255 4.468591 31.667142 5.650826
2008-07-31 08:17:08 51°14.843 2°54.618 20.7203 4.471602 31.692124 5.616002
2008-07-31 08:17:13 51°14.859 2°54.611 20.7151 4.473574 31.710023 5.616002
2008-07-31 08:17:18 51°14.875 2°54.605 20.7135 4.476481 31.736467 5.616002
2008-07-31 08:17:22 51°14.888 2°54.6 20.7056 4.475443 31.732789 5.581178
2008-07-31 08:17:27 51°14.904 2°54.595 20.702 4.475443 31.732789 5.581178
2008-07-31 08:17:33 51°14.923 2°54.589 20.7015 4.469526 31.688735 5.581178
2008-07-31 08:17:37 51°14.936 2°54.585 20.696 4.475962 31.743161 5.546354
2008-07-31 08:17:42 51°14.952 2°54.58 20.6915 4.47316 31.724354 5.546354
2008-07-31 08:17:47 51°14.968 2°54.574 20.6917 4.471395 31.715481 5.546354
2008-07-31 08:17:52 51°14.983 2°54.569 20.6874 4.47534 31.751315 5.51153
2008-07-31 08:17:57 51°14.999 2°54.563 20.6866 4.475548 31.756949 5.476706
2008-07-31 08:18:01 51°15.012 2°54.559 20.6822 4.475548 31.756949 5.476706
2008-07-31 08:18:06 51°15.028 2°54.553 20.6844 4.476482 31.766639 5.51153
2008-07-31 08:18:11 51°15.043 2°54.547 20.6841 4.471603 31.730784 5.51153
2008-07-31 08:18:16 51°15.059 2°54.541 20.6728 4.476794 31.77595 5.581178
2008-07-31 08:18:21 51°15.075 2°54.536 20.6718 4.476794 31.778231 5.616002
2008-07-31 08:18:25 51°15.087 2°54.531 20.6638 4.47669 31.780259 5.650826
2008-07-31 08:18:30 51°15.103 2°54.525 20.6602 4.47669 31.780259 5.650826
2008-07-31 08:18:35 51°15.119 2°54.52 20.6497 4.474717 31.766318 5.68565
2008-07-31 08:18:40 51°15.135 2°54.514 20.6478 4.47669 31.784253 5.720474
2008-07-31 08:18:45 51°15.151 2°54.508 20.6366 4.477417 31.792303 5.720474
2008-07-31 08:18:50 51°15.166 2°54.503 20.6313 4.472226 31.754527 5.68565
2008-07-31 08:18:54 51°15.179 2°54.498 20.6236 4.472226 31.754527 5.68565
2008-07-31 08:19:00 51°15.198 2°54.491 20.6246 4.476379 31.790912 5.650826
2008-07-31 08:19:05 51°15.214 2°54.485 20.6194 4.475133 31.785018 5.546354
2008-07-31 08:19:10 51°15.23 2°54.479 20.6048 4.470358 31.75338 5.476706
2008-07-31 08:19:15 51°15.245 2°54.474 20.6046 4.474303 31.789843 5.302586
2008-07-31 08:19:20 51°15.261 2°54.468 20.5975 4.472538 31.781538 5.232937
2008-07-31 08:19:25 51°15.277 2°54.462 20.5953 4.472538 31.781538 5.232937
2008-07-31 08:19:29 51°15.289 2°54.458 20.5888 4.471604 31.780399 5.093641
2008-07-31 08:19:34 51°15.305 2°54.453 20.5891 4.472227 31.78992 5.023993
2008-07-31 08:19:40 51°15.324 2°54.447 20.5844 4.467763 31.75845 4.849873
2008-07-31 08:19:45 51°15.34 2°54.441 20.5821 4.469009 31.774062 4.780225
2008-07-31 08:19:49 51°15.353 2°54.437 20.5793 4.470254 31.78968 4.710577
2008-07-31 08:19:55 51°15.372 2°54.431 20.5743 4.469943 31.791208 4.640929
2008-07-31 08:20:00 51°15.388 2°54.426 20.5725 4.469943 31.791208 4.640929
2008-07-31 08:20:05 51°15.403 2°54.42 20.5659 4.470151 31.797436 4.640929
2008-07-31 08:20:09 51°15.416 2°54.416 20.564 4.469839 31.798393 4.606104
2008-07-31 08:20:15 51°15.435 2°54.411 20.5662 4.468801 31.793571 4.57128
2008-07-31 08:20:20 51°15.451 2°54.406 20.5559 4.470151 31.806594 4.536456
2008-07-31 08:20:25 51°15.467 2°54.401 20.5549 4.470151 31.806594 4.536456
2008-07-31 08:20:31 51°15.486 2°54.396 20.5545 4.461846 31.742836 4.501632
2008-07-31 08:20:35 51°15.499 2°54.392 20.5504 4.469736 31.809591 4.501632
2008-07-31 08:20:40 51°15.515 2°54.387 20.5463 4.468179 31.800066 4.431984
2008-07-31 08:20:45 51°15.531 2°54.382 20.5459 4.4606 31.74093 4.466808
2008-07-31 08:20:50 51°15.547 2°54.376 20.539 4.468283 31.806047 4.362336
2008-07-31 08:20:55 51°15.563 2°54.371 20.538 4.468283 31.806047 4.362336
2008-07-31 08:21:00 51°15.579 2°54.366 20.5296 4.460704 31.748045 4.362336
2008-07-31 08:21:05 51°15.595 2°54.361 20.5267 4.459458 31.740994 4.327512
2008-07-31 08:21:10 51°15.611 2°54.356 20.5187 4.466726 31.80225 4.362336
2008-07-31 08:21:14 51°15.624 2°54.352 20.5197 4.464442 31.786939 4.257864
2008-07-31 08:21:19 51°15.64 2°54.346 20.5134 4.467452 31.813766 4.22304
2008-07-31 08:21:25 51°15.659 2°54.34 20.5104 4.459563 31.753261 4.22304
2008-07-31 08:21:30 51°15.675 2°54.335 20.5099 4.459563 31.753261 4.22304
2008-07-31 08:21:35 51°15.691 2°54.33 20.5029 4.464857 31.800558 4.22304
2008-07-31 08:21:39 51°15.704 2°54.326 20.5004 4.467349 31.823837 4.153392
2008-07-31 08:21:45 51°15.723 2°54.32 20.4968 4.467764 31.831735 4.118568
2008-07-31 08:21:50 51°15.739 2°54.314 20.4939 4.464442 31.807574 4.118568
2008-07-31 08:21:54 51°15.752 2°54.31 20.4943 4.466726 31.829207 4.083744
2008-07-31 08:22:00 51°15.771 2°54.304 20.4969 4.466726 31.829207 4.083744
2008-07-31 08:22:05 51°15.788 2°54.299 20.4974 4.463404 31.80619 4.04892
2008-07-31 08:22:10 51°15.803 2°54.294 20.5006 4.46683 31.836925 4.014096
2008-07-31 08:22:14 51°15.816 2°54.29 20.5031 4.463197 31.810849 4.014096
2008-07-31 08:22:20 51°15.835 2°54.284 20.5052 4.468595 31.856734 4.04892
2008-07-31 08:22:25 51°15.851 2°54.279 20.5063 4.468595 31.856734 4.04892
2008-07-31 08:22:30 51°15.867 2°54.274 20.5046 4.468699 31.859861 4.118568
2008-07-31 08:22:34 51°15.879 2°54.27 20.498 4.468595 31.859608 4.153392
2008-07-31 08:22:40 51°15.898 2°54.265 20.4967 4.470567 31.875329 4.22304
2008-07-31 08:22:45 51°15.914 2°54.261 20.4944 4.468699 31.859861 4.257864
2008-07-31 08:22:50 51°15.93 2°54.257 20.4894 4.471294 31.87882 4.327512
2008-07-31 08:22:54 51°15.943 2°54.254 20.4879 4.471294 31.87882 4.327512
2008-07-31 08:23:00 51°15.962 2°54.249 20.4878 4.472021 31.883461 4.39716
2008-07-31 08:23:05 51°15.978 2°54.246 20.4843 4.472228 31.885116 4.39716
2008-07-31 08:23:10 51°15.994 2°54.242 20.484 4.472748 31.890979 4.466808
2008-07-31 08:23:15 51°16.009 2°54.238 20.4865 4.474305 31.905119 4.501632
2008-07-31 08:23:19 51°16.022 2°54.235 20.4869 4.468699 31.861586 4.606104
2008-07-31 08:23:25 51°16.041 2°54.231 20.4892 4.473786 31.905012 4.675753
2008-07-31 08:23:30 51°16.057 2°54.228 20.493 4.473786 31.905012 4.675753
2008-07-31 08:23:34 51°16.07 2°54.226 20.493 4.469841 31.87529 4.815049
2008-07-31 08:23:38 51°16.083 2°54.223 20.4979 4.465896 31.846144 4.919521
2008-07-31 08:23:45 51°16.105 2°54.219 20.498 4.471191 31.888927 5.058817
2008-07-31 08:23:50 51°16.121 2°54.216 20.4991 4.462055 31.816104 5.128465
2008-07-31 08:23:55 51°16.137 2°54.213 20.4987 4.467661 31.860212 5.232937
2008-07-31 08:24:00 51°16.153 2°54.209 20.498 4.467661 31.860212 5.232937
2008-07-31 08:24:05 51°16.169 2°54.206 20.4978 4.465792 31.844742 5.267761
2008-07-31 08:24:10 51°16.185 2°54.202 20.498 4.467349 31.855429 5.33741
2008-07-31 08:24:15 51°16.201 2°54.199 20.4982 4.462159 31.812336 5.372234
2008-07-31 08:24:20 51°16.217 2°54.195 20.4976 4.464131 31.826906 5.33741
2008-07-31 08:24:24 51°16.23 2°54.192 20.4966 4.464131 31.826906 5.33741
2008-07-31 08:24:30 51°16.248 2°54.187 20.4945 4.464858 31.831548 5.372234
2008-07-31 08:24:35 51°16.263 2°54.179 20.4914 4.461017 31.800367 5.372234
2008-07-31 08:24:40 51°16.276 2°54.17 20.4921 4.465169 31.833456 5.372234
2008-07-31 08:24:45 51°16.289 2°54.16 20.4933 4.464442 31.827665 5.372234
2008-07-31 08:24:50 51°16.301 2°54.148 20.4919 4.462781 31.814429 5.372234
2008-07-31 08:24:55 51°16.313 2°54.136 20.4922 4.454892 31.752717 5.372234
2008-07-31 08:25:00 51°16.325 2°54.124 20.491 4.454892 31.752717 5.372234
2008-07-31 08:25:05 51°16.336 2°54.111 20.49 4.461328 31.805144 5.407058
2008-07-31 08:25:10 51°16.347 2°54.097 20.4897 4.462678 31.817622 5.407058
2008-07-31 08:25:14 51°16.355 2°54.086 20.4898 4.46164 31.809348 5.33741
2008-07-31 08:25:20 51°16.367 2°54.069 20.489 4.461224 31.806614 5.372234
2008-07-31 08:25:25 51°16.377 2°54.054 20.4888 4.455515 31.761691 5.441882
2008-07-31 08:25:30 51°16.386 2°54.038 20.4639 4.455515 31.761691 5.441882
2008-07-31 08:25:35 51°16.395 2°54.023 20.4628 4.455203 31.760357 5.441882
2008-07-31 08:25:40 51°16.403 2°54.006 20.4721 4.45022 31.720658 5.441882
2008-07-31 08:25:45 51°16.412 2°53.99 20.4883 4.451258 31.729501 5.407058
2008-07-31 08:25:50 51°16.42 2°53.973 20.5959 4.45375 31.748777 5.372234
2008-07-31 08:25:54 51°16.427 2°53.96 20.6073 4.45375 31.748777 5.372234
2008-07-31 08:25:59 51°16.436 2°53.945 20.6325 4.452816 31.740187 6.382131
2008-07-31 08:26:05 51°16.447 2°53.926 20.6402 4.456241 31.769202 5.755298
2008-07-31 08:26:10 51°16.456 2°53.911 20.665 4.453646 31.753682 5.476706
2008-07-31 08:26:14 51°16.463 2°53.899 20.6512 4.453231 31.7498 5.267761
2008-07-31 08:26:20 51°16.474 2°53.881 20.651 4.44721 31.685239 5.058817
2008-07-31 08:26:24 51°16.482 2°53.87 20.6375 4.44721 31.685239 5.058817
2008-07-31 08:26:30 51°16.494 2°53.852 20.5875 4.436517 31.574488 4.919521
2008-07-31 08:26:34 51°16.501 2°53.841 20.5532 4.444717 31.612368 4.849873
2008-07-31 08:26:39 51°16.511 2°53.827 20.549 4.45053 31.639209 4.780225
2008-07-31 08:26:44 51°16.52 2°53.813 20.5311 4.462364 31.716703 4.745401
2008-07-31 08:26:50 51°16.532 2°53.796 20.5353 4.468904 31.759528 4.745401
2008-07-31 08:26:55 51°16.542 2°53.783 20.5591 4.469216 31.763144 4.780225
2008-07-31 08:27:00 51°16.551 2°53.769 20.5668 4.469216 31.763144 4.780225
2008-07-31 08:27:04 51°16.559 2°53.758 20.5524 4.477314 31.837785 4.780225
2008-07-31 08:27:10 51°16.571 2°53.742 20.5479 4.473992 31.830844 4.884697
2008-07-31 08:27:15 51°16.581 2°53.728 20.5497 4.480844 31.901422 5.302586
2008-07-31 08:27:20 51°16.59 2°53.714 20.5514 4.477938 31.890349 5.720474
2008-07-31 08:27:25 51°16.6 2°53.7 20.5275 4.477938 31.890349 5.720474
2008-07-31 08:27:30 51°16.61 2°53.687 20.5164 4.482609 31.930998 6.033891
2008-07-31 08:27:35 51°16.619 2°53.673 20.4857 4.490084 31.987075 6.416955
2008-07-31 08:27:40 51°16.628 2°53.659 20.4743 4.492472 32.005518 6.6259
2008-07-31 08:27:44 51°16.636 2°53.649 20.4596 4.493822 32.016846 6.869668
2008-07-31 08:27:50 51°16.647 2°53.632 20.4337 4.494964 32.027098 7.217908
2008-07-31 08:27:55 51°16.657 2°53.618 20.4391 4.494964 32.027098 7.217908
2008-07-31 08:27:59 51°16.664 2°53.608 20.4187 4.497559 32.052397 7.14826
2008-07-31 08:28:04 51°16.674 2°53.594 20.4184 4.495795 32.045265 6.939316
2008-07-31 08:28:10 51°16.685 2°53.578 20.4276 4.499636 32.088032 6.869668
2008-07-31 08:28:15 51°16.695 2°53.564 20.4226 4.499533 32.100522 6.730372
2008-07-31 08:28:19 51°16.702 2°53.553 20.412 4.4932 32.06563 6.695548
2008-07-31 08:28:24 51°16.711 2°53.539 20.4057 4.4932 32.06563 6.695548
2008-07-31 08:28:30 51°16.722 2°53.523 20.403 4.499845 32.130842 6.660724
2008-07-31 08:28:35 51°16.731 2°53.508 20.3987 4.494861 32.100914 6.660724
2008-07-31 08:28:40 51°16.74 2°53.495 20.3892 4.50296 32.174315 6.730372
2008-07-31 08:28:44 51°16.748 2°53.484 20.3831 4.505971 32.202449 6.80002
2008-07-31 08:28:49 51°16.757 2°53.47 20.3794 4.502648 32.178807 6.80002
2008-07-31 08:28:55 51°16.768 2°53.453 20.3694 4.506801 32.217826 6.834844
2008-07-31 08:29:00 51°16.778 2°53.439 20.3613 4.506801 32.217826 6.834844
2008-07-31 08:29:04 51°16.785 2°53.428 20.3528 4.506386 32.219751 6.765196
2008-07-31 08:29:10 51°16.796 2°53.411 20.3647 4.50867 32.242099 6.765196
2008-07-31 08:29:15 51°16.805 2°53.397 20.3622 4.508671 32.247934 6.695548
2008-07-31 08:29:20 51°16.814 2°53.383 20.3506 4.509397 32.259586 6.660724
2008-07-31 08:29:24 51°16.821 2°53.372 20.3481 4.509397 32.259586 6.660724
2008-07-31 08:29:30 51°16.833 2°53.356 20.3481 4.502441 32.210937 6.6259
2008-07-31 08:29:35 51°16.842 2°53.342 20.337 4.509917 32.277179 6.591076
2008-07-31 08:29:40 51°16.851 2°53.329 20.3362 4.499327 32.196514 6.6259
2008-07-31 08:29:44 51°16.858 2°53.318 20.3316 4.507944 32.267235 6.660724
2008-07-31 08:29:50 51°16.869 2°53.301 20.3255 4.5013 32.218136 6.660724
2008-07-31 08:29:55 51°16.878 2°53.287 20.3234 4.5013 32.218136 6.660724
2008-07-31 08:29:59 51°16.886 2°53.276 20.3194 4.506387 32.261782 6.660724
2008-07-31 08:30:05 51°16.896 2°53.26 20.3146 4.506179 32.264212 6.660724
2008-07-31 08:30:10 51°16.905 2°53.246 20.3112 4.505557 32.263902 6.660724
2008-07-31 08:30:15 51°16.914 2°53.232 20.3114 4.504415 32.25885 6.6259
2008-07-31 08:30:19 51°16.921 2°53.221 20.3045 4.505764 32.273756 6.6259
2008-07-31 08:30:25 51°16.932 2°53.205 20.3036 4.503169 32.257059 6.660724
2008-07-31 08:30:30 51°16.941 2°53.19 20.2906 4.503169 32.257059 6.660724
2008-07-31 08:30:35 51°16.949 2°53.177 20.297 4.499639 32.23229 6.6259
2008-07-31 08:30:39 51°16.956 2°53.165 20.2909 4.506803 32.293199 6.591076
2008-07-31 08:30:44 51°16.965 2°53.151 20.291 4.505661 32.287561 6.591076
2008-07-31 08:30:50 51°16.975 2°53.134 20.2805 4.496109 32.213363 6.521427
2008-07-31 08:30:56 51°16.985 2°53.117 20.2804 4.501923 32.264048 6.486603
2008-07-31 08:31:00 51°16.992 2°53.106 20.278 4.501923 32.264048 6.486603
2008-07-31 08:31:05 51°17.001 2°53.092 20.2745 4.505661 32.297523 6.416955
2008-07-31 08:31:10 51°17.01 2°53.078 20.2729 4.501197 32.263493 6.451779
2008-07-31 08:31:15 51°17.019 2°53.064 20.2693 4.490192 32.177632 6.416955
2008-07-31 08:31:20 51°17.027 2°53.05 20.2658 4.501612 32.273265 6.382131
2008-07-31 08:31:24 51°17.034 2°53.039 20.2556 4.501612 32.273265 6.382131
2008-07-31 08:31:29 51°17.042 2°53.024 20.2528 4.502754 32.285939 6.347307
2008-07-31 08:31:35 51°17.053 2°53.007 20.2539 4.496006 32.234757 6.277659
2008-07-31 08:31:40 51°17.061 2°52.993 20.2433 4.500574 32.274316 6.208011
2008-07-31 08:31:45 51°17.07 2°52.979 20.2408 4.495383 32.235617 6.173187
2008-07-31 08:31:50 51°17.078 2°52.964 20.2363 4.497979 32.258775 6.103539
2008-07-31 08:31:54 51°17.085 2°52.953 20.237 4.497979 32.258775 6.103539
2008-07-31 08:32:00 51°17.096 2°52.936 20.2343 4.497356 32.258466 6.068715
2008-07-31 08:32:05 51°17.104 2°52.922 20.2305 4.494034 32.235333 5.999067
2008-07-31 08:32:10 51°17.113 2°52.907 20.2225 4.500574 32.291324 5.964243
2008-07-31 08:32:15 51°17.121 2°52.893 20.2193 4.490919 32.217962 5.964243
2008-07-31 08:32:20 51°17.13 2°52.878 20.2176 4.494345 32.248965 5.85977
2008-07-31 08:32:25 51°17.138 2°52.864 20.1936 4.494034 32.249983 5.824946
2008-07-31 08:32:30 51°17.147 2°52.85 20.1912 4.494034 32.249983 5.824946
2008-07-31 08:32:35 51°17.156 2°52.836 20.2021 4.494761 32.259334 5.755298
2008-07-31 08:32:40 51°17.165 2°52.822 20.202 4.494553 32.261187 5.720474
2008-07-31 08:32:45 51°17.173 2°52.808 20.1921 4.489674 32.224953 5.616002
2008-07-31 08:32:50 51°17.182 2°52.794 20.1923 4.490297 32.235229 5.546354
2008-07-31 08:32:55 51°17.191 2°52.78 20.1904 4.490297 32.235229 5.546354
2008-07-31 08:33:00 51°17.199 2°52.766 20.1876 4.486975 32.217938 5.476706
2008-07-31 08:33:04 51°17.206 2°52.754 20.1859 4.486663 32.221887 5.407058
2008-07-31 08:33:10 51°17.217 2°52.737 20.183 4.487182 32.227816 5.407058
2008-07-31 08:33:15 51°17.226 2°52.723 20.1859 4.484795 32.210985 5.33741
2008-07-31 08:33:20 51°17.234 2°52.709 20.1832 4.479915 32.174729 5.267761
2008-07-31 08:33:24 51°17.241 2°52.698 20.1813 4.479915 32.174729 5.267761
2008-07-31 08:33:30 51°17.252 2°52.681 20.1881 4.479292 32.17207 5.198113
2008-07-31 08:33:35 51°17.26 2°52.667 20.1799 4.482407 32.199429 5.163289
2008-07-31 08:33:40 51°17.269 2°52.653 20.1886 4.48168 32.197109 5.128465
2008-07-31 08:33:44 51°17.276 2°52.642 20.1792 4.477839 32.167426 5.023993
2008-07-31 08:33:49 51°17.285 2°52.628 20.1788 4.477632 32.167516 4.989169
2008-07-31 08:33:55 51°17.295 2°52.611 20.1703 4.479396 32.182279 4.989169
2008-07-31 08:34:00 51°17.304 2°52.597 20.1655 4.479396 32.182279 4.989169
2008-07-31 08:34:04 51°17.311 2°52.585 20.1525 4.473687 32.137 4.919521
2008-07-31 08:34:10 51°17.321 2°52.568 20.1438 4.478151 32.172271 4.849873
2008-07-31 08:34:14 51°17.328 2°52.557 20.1364 4.471299 32.118408 4.745401
2008-07-31 08:34:20 51°17.339 2°52.539 20.1252 4.4686 32.098486 4.710577
2008-07-31 08:34:24 51°17.346 2°52.528 20.117 4.473064 32.137265 4.606104
2008-07-31 08:34:29 51°17.354 2°52.514 20.1161 4.473064 32.137265 4.606104
2008-07-31 08:34:35 51°17.365 2°52.497 20.1014 4.474621 32.154461 4.536456
2008-07-31 08:34:40 51°17.373 2°52.482 20.0964 4.459464 32.038554 4.431984
2008-07-31 08:34:45 51°17.382 2°52.468 20.0799 4.459776 32.048648 4.362336
2008-07-31 08:34:50 51°17.391 2°52.454 20.0786 4.46507 32.097621 4.257864
2008-07-31 08:34:55 51°17.4 2°52.44 20.0713 4.46507 32.097621 4.257864
2008-07-31 08:35:00 51°17.408 2°52.426 20.059 4.465071 32.10406 4.188216
2008-07-31 08:35:05 51°17.417 2°52.412 20.0353 4.469742 32.149239 4.083744
2008-07-31 08:35:10 51°17.426 2°52.398 20.0388 4.467978 32.143256 4.014096
2008-07-31 08:35:15 51°17.435 2°52.385 20.0446 4.467043 32.14278 3.944447
2008-07-31 08:35:20 51°17.444 2°52.371 20.0234 4.465798 32.139799 3.874799
2008-07-31 08:35:24 51°17.451 2°52.359 20.0305 4.465798 32.139799 3.874799
2008-07-31 08:35:30 51°17.462 2°52.343 20.0287 4.463099 32.126294 3.805151
2008-07-31 08:35:35 51°17.471 2°52.328 20.0054 4.464241 32.143703 3.700679
2008-07-31 08:35:40 51°17.48 2°52.314 20.0041 4.461231 32.129449 3.665855
2008-07-31 08:35:44 51°17.487 2°52.303 19.9898 4.459154 32.118602 3.631031
2008-07-31 08:35:48 51°17.494 2°52.292 20.0089 4.456871 32.106668 3.596207
2008-07-31 08:35:55 51°17.506 2°52.273 19.9949 4.459881 32.135616 3.561383
2008-07-31 08:36:00 51°17.515 2°52.259 19.9837 4.459881 32.135616 3.561383
2008-07-31 08:36:05 51°17.524 2°52.244 19.9742 4.459674 32.136882 3.491735
2008-07-31 08:36:10 51°17.533 2°52.23 19.989 4.456975 32.121013 3.491735
2008-07-31 08:36:15 51°17.542 2°52.216 19.9889 4.453238 32.097364 3.422087
2008-07-31 08:36:20 51°17.551 2°52.202 19.9639 4.455314 32.119971 3.422087
2008-07-31 08:36:24 51°17.558 2°52.19 19.9702 4.45656 32.134129 3.352439
2008-07-31 08:36:30 51°17.568 2°52.174 19.9782 4.45656 32.134129 3.352439
2008-07-31 08:36:35 51°17.577 2°52.16 19.9508 4.456767 32.140509 3.317614
2008-07-31 08:36:40 51°17.586 2°52.146 19.9593 4.450746 32.096672 3.28279
2008-07-31 08:36:45 51°17.595 2°52.131 19.9618 4.449397 32.087556 3.28279
2008-07-31 08:36:50 51°17.604 2°52.117 19.9448 4.449812 32.095605 3.213142
2008-07-31 08:36:55 51°17.613 2°52.103 19.9819 4.449812 32.095605 3.213142
2008-07-31 08:37:00 51°17.621 2°52.089 19.9502 4.454692 32.13907 3.213142
2008-07-31 08:37:05 51°17.63 2°52.075 19.9518 4.455418 32.149054 3.178318
2008-07-31 08:37:10 51°17.639 2°52.061 19.9247 4.454069 32.14229 3.143494
2008-07-31 08:37:15 51°17.648 2°52.047 19.9366 4.453861 32.142382 3.10867
2008-07-31 08:37:20 51°17.656 2°52.033 19.9505 4.451266 32.125566 3.073846
2008-07-31 08:37:24 51°17.663 2°52.022 19.9236 4.451993 32.131429 3.10867
2008-07-31 08:37:30 51°17.674 2°52.005 19.9254 4.451993 32.131429 3.10867
2008-07-31 08:37:35 51°17.683 2°51.991 19.9359 4.450955 32.123053 3.004198
2008-07-31 08:37:40 51°17.691 2°51.977 19.8987 4.454173 32.154913 2.969374
2008-07-31 08:37:44 51°17.698 2°51.966 19.9137 4.455523 32.171113 3.004198
2008-07-31 08:37:50 51°17.709 2°51.949 19.8986 4.455523 32.172883 2.969374
2008-07-31 08:37:55 51°17.718 2°51.935 19.8956 4.455315 32.176518 2.969374
2008-07-31 08:38:00 51°17.727 2°51.922 19.8911 4.455315 32.176518 2.969374
2008-07-31 08:38:04 51°17.734 2°51.911 19.9084 4.456249 32.187604 2.93455
2008-07-31 08:38:10 51°17.746 2°51.897 19.8754 4.455211 32.186306 2.899726
2008-07-31 08:38:15 51°17.756 2°51.885 19.8819 4.455419 32.1933 2.899726
2008-07-31 08:38:20 51°17.766 2°51.873 19.8764 4.457807 32.21318 2.864902
2008-07-31 08:38:24 51°17.774 2°51.864 19.8726 4.457807 32.21318 2.864902
2008-07-31 08:38:30 51°17.786 2°51.852 19.8896 4.454796 32.193586 2.830078
2008-07-31 08:38:35 51°17.797 2°51.843 19.8615 4.456769 32.212479 2.864902
2008-07-31 08:38:40 51°17.808 2°51.836 19.8437 4.457703 32.224762 2.795254
2008-07-31 08:38:44 51°17.817 2°51.83 19.8553 4.457496 32.226043 2.830078
2008-07-31 08:38:49 51°17.828 2°51.825 19.8452 4.456977 32.224215 2.795254
2008-07-31 08:38:55 51°17.841 2°51.821 19.8357 4.456977 32.224215 2.795254
2008-07-31 08:39:00 51°17.853 2°51.818 19.8457 4.460922 32.262031 2.795254
2008-07-31 08:39:05 51°17.865 2°51.816 19.8304 4.462271 32.274129 2.830078
2008-07-31 08:39:10 51°17.876 2°51.815 19.8314 4.458223 32.24613 2.76043
2008-07-31 08:39:15 51°17.887 2°51.814 19.8119 4.45407 32.220841 2.76043
2008-07-31 08:39:20 51°17.899 2°51.814 19.7837 4.460403 32.275029 2.76043
2008-07-31 08:39:25 51°17.911 2°51.814 19.777 4.465178 32.316637 2.76043
2008-07-31 08:39:30 51°17.922 2°51.814 19.7604 4.465178 32.316637 2.76043
2008-07-31 08:39:35 51°17.934 2°51.815 19.7505 4.455732 32.245536 2.725606
2008-07-31 08:39:40 51°17.946 2°51.816 19.7669 4.464037 32.320469 2.690782
2008-07-31 08:39:45 51°17.957 2°51.818 19.7496 4.457185 32.270945 2.655957
2008-07-31 08:39:50 51°17.969 2°51.82 19.7387 4.461026 32.312147 2.621133
2008-07-31 08:39:55 51°17.98 2°51.824 19.7249 4.464349 32.347983 2.586309
2008-07-31 08:40:00 51°17.991 2°51.827 19.73 4.464349 32.347983 2.586309
2008-07-31 08:40:04 51°18 2°51.831 19.7159 4.458743 32.313278 2.586309
2008-07-31 08:40:10 51°18.013 2°51.838 19.6934 4.465076 32.372946 2.586309
2008-07-31 08:40:15 51°18.024 2°51.845 19.6899 4.46383 32.367021 2.551485
2008-07-31 08:40:20 51°18.034 2°51.853 19.6748 4.464245 32.380532 2.481837
2008-07-31 08:40:24 51°18.043 2°51.859 19.6747 4.464245 32.380532 2.481837
2008-07-31 08:40:29 51°18.053 2°51.868 19.6617 4.465388 32.398753 2.516661
2008-07-31 08:40:35 51°18.065 2°51.878 19.6584 4.463727 32.392446 2.447013
2008-07-31 08:40:40 51°18.075 2°51.887 19.6557 4.465492 32.415138 2.412189
2008-07-31 08:40:44 51°18.083 2°51.894 19.6609 4.447948 32.28171 2.377365
2008-07-31 08:40:50 51°18.095 2°51.905 19.6504 4.45864 32.379246 2.342541
2008-07-31 08:40:54 51°18.103 2°51.913 19.6511 4.45864 32.379246 2.342541
2008-07-31 08:41:00 51°18.115 2°51.925 19.6458 4.457914 32.381118 2.342541
2008-07-31 08:41:04 51°18.123 2°51.933 19.6379 4.461651 32.421655 2.307717
2008-07-31 08:41:10 51°18.134 2°51.945 19.6357 4.462378 32.432954 2.307717
2008-07-31 08:41:15 51°18.144 2°51.956 19.6284 4.459264 32.412436 2.307717
2008-07-31 08:41:20 51°18.153 2°51.966 19.6303 4.458745 32.410015 2.307717
2008-07-31 08:41:25 51°18.163 2°51.977 19.6349 4.461548 32.436395 2.307717
2008-07-31 08:41:30 51°18.172 2°51.988 19.6364 4.461548 32.436395 2.307717
2008-07-31 08:41:35 51°18.182 2°51.999 19.6197 4.454696 32.384294 2.272893
2008-07-31 08:41:40 51°18.191 2°52.01 19.6272 4.452412 32.36992 2.272893
2008-07-31 08:41:45 51°18.2 2°52.022 19.6215 4.452932 32.37893 2.238069
2008-07-31 08:41:50 51°18.21 2°52.033 19.6197 4.45262 32.379393 2.238069
2008-07-31 08:41:55 51°18.219 2°52.045 19.6214 4.45262 32.379393 2.238069
2008-07-31 08:42:00 51°18.228 2°52.058 19.6154 4.450959 32.367085 2.238069
2008-07-31 08:42:05 51°18.237 2°52.071 19.6099 4.457499 32.421467 2.203245
2008-07-31 08:42:10 51°18.247 2°52.085 19.6123 4.457811 32.4264 2.203245
2008-07-31 08:42:15 51°18.256 2°52.1 19.6188 4.4439 32.31448 2.203245
2008-07-31 08:42:20 51°18.265 2°52.115 19.6134 4.448156 32.352078 2.203245
2008-07-31 08:42:24 51°18.272 2°52.127 19.617 4.448156 32.352078 2.203245
2008-07-31 08:42:29 51°18.281 2°52.144 19.6165 4.451686 32.383178 2.203245
2008-07-31 08:42:35 51°18.291 2°52.165 19.6091 4.459057 32.445538 2.168421
2008-07-31 08:42:40 51°18.299 2°52.182 19.6048 4.454593 32.41102 2.203245
2008-07-31 08:42:45 51°18.307 2°52.2 19.6066 4.447534 32.354197 2.238069
2008-07-31 08:42:49 51°18.313 2°52.215 19.5986 4.459264 32.45023 2.238069
2008-07-31 08:42:55 51°18.322 2°52.238 19.6045 4.459991 32.456144 2.238069
2008-07-31 08:43:00 51°18.33 2°52.257 19.6 4.459991 32.456144 2.238069
2008-07-31 08:43:05 51°18.338 2°52.277 19.5927 4.458953 32.448297 2.203245
2008-07-31 08:43:10 51°18.345 2°52.297 19.5966 4.451479 32.388083 2.203245
2008-07-31 08:43:15 51°18.352 2°52.318 19.5946 4.456254 32.430537 2.203245
2008-07-31 08:43:20 51°18.36 2°52.338 19.5966 4.460303 32.46589 2.203245
2008-07-31 08:43:25 51°18.367 2°52.36 19.5999 4.457915 32.448259 2.238069
2008-07-31 08:43:29 51°18.372 2°52.378 19.5975 4.457915 32.448259 2.238069
2008-07-31 08:43:35 51°18.381 2°52.404 19.5975 4.458123 32.451752 2.238069
2008-07-31 08:43:40 51°18.387 2°52.427 19.5943 4.459991 32.468766 2.238069
2008-07-31 08:43:45 51°18.393 2°52.45 19.5984 4.458538 32.458137 2.238069
2008-07-31 08:43:50 51°18.398 2°52.473 19.6051 4.456566 32.442682 2.238069
2008-07-31 08:43:55 51°18.404 2°52.496 19.604 4.448468 32.37618 2.238069
2008-07-31 08:44:00 51°18.409 2°52.52 19.6022 4.448468 32.37618 2.238069
2008-07-31 08:44:05 51°18.415 2°52.544 19.6021 4.460407 32.473951 2.272893
2008-07-31 08:44:10 51°18.42 2°52.567 19.6052 4.461756 32.484336 2.272893
2008-07-31 08:44:15 51°18.425 2°52.591 19.6039 4.461549 32.483248 2.238069
2008-07-31 08:44:20 51°18.431 2°52.614 19.6126 4.461341 32.480956 2.238069
2008-07-31 08:44:24 51°18.435 2°52.633 19.614 4.461341 32.480956 2.238069
2008-07-31 08:44:30 51°18.442 2°52.661 19.6176 4.461133 32.478062 2.272893
2008-07-31 08:44:35 51°18.447 2°52.685 19.6198 4.46103 32.477217 2.238069
2008-07-31 08:44:40 51°18.453 2°52.708 19.6232 4.460718 32.47408 2.238069
2008-07-31 08:44:44 51°18.457 2°52.727 19.6263 4.460407 32.470944 2.272893
2008-07-31 08:44:50 51°18.463 2°52.756 19.631 4.459991 32.46576 2.272893
2008-07-31 08:44:55 51°18.469 2°52.779 19.6334 4.45968 32.46082 2.307717
2008-07-31 08:45:00 51°18.474 2°52.803 19.6361 4.45968 32.46082 2.307717
2008-07-31 08:45:05 51°18.48 2°52.827 19.6416 4.459368 32.455281 2.272893
2008-07-31 08:45:10 51°18.485 2°52.85 19.6442 4.458123 32.44274 2.307717
2008-07-31 08:45:15 51°18.49 2°52.874 19.6442 4.457811 32.437203 2.307717
2008-07-31 08:45:20 51°18.496 2°52.897 19.6522 4.457603 32.433113 2.342541
2008-07-31 08:45:24 51°18.501 2°52.916 19.6537 4.457084 32.425889 2.342541
2008-07-31 08:45:29 51°18.506 2°52.939 19.6505 4.457084 32.425889 2.342541
2008-07-31 08:45:35 51°18.513 2°52.968 19.6545 4.45698 32.422644 2.342541
2008-07-31 08:45:40 51°18.519 2°52.991 19.6583 4.456254 32.413735 2.342541
2008-07-31 08:45:45 51°18.524 2°53.015 19.6604 4.456876 32.416402 2.342541
2008-07-31 08:45:50 51°18.53 2°53.039 19.6672 4.455734 32.403518 2.377365
2008-07-31 08:45:55 51°18.533 2°53.063 19.6681 4.455734 32.403518 2.377365
2008-07-31 08:46:00 51°18.537 2°53.088 19.6706 4.455423 32.397989 2.377365
2008-07-31 08:46:05 51°18.54 2°53.112 19.6765 4.455112 32.393659 2.377365
2008-07-31 08:46:10 51°18.544 2°53.137 19.6777 4.454592 32.387642 2.377365
2008-07-31 08:46:15 51°18.547 2°53.162 19.6835 4.454281 32.382715 2.342541
2008-07-31 08:46:20 51°18.549 2°53.186 19.6852 4.454177 32.378878 2.412189
2008-07-31 08:46:24 51°18.552 2°53.206 19.6934 4.453762 32.371911 2.377365
2008-07-31 08:46:30 51°18.555 2°53.236 19.6978 4.453762 32.371911 2.377365
2008-07-31 08:46:35 51°18.558 2°53.26 19.7045 4.453035 32.363612 2.377365
2008-07-31 08:46:40 51°18.56 2°53.285 19.7112 4.453865 32.36737 2.377365
2008-07-31 08:46:44 51°18.562 2°53.305 19.717 4.453346 32.360759 2.377365
2008-07-31 08:46:50 51°18.564 2°53.335 19.723 4.452204 32.348493 2.412189
2008-07-31 08:46:55 51°18.564 2°53.36 19.7298 4.451789 32.340936 2.412189
2008-07-31 08:47:00 51°18.564 2°53.385 19.7324 4.451789 32.340936 2.412189
2008-07-31 08:47:04 51°18.563 2°53.406 19.7363 4.452308 32.340969 2.447013
2008-07-31 08:47:10 51°18.56 2°53.436 19.7428 4.451062 32.325478 2.447013
2008-07-31 08:47:15 51°18.556 2°53.461 19.7464 4.451374 32.322634 2.481837
2008-07-31 08:47:20 51°18.552 2°53.486 19.7512 4.450958 32.313892 2.481837
2008-07-31 08:47:25 51°18.548 2°53.51 19.7569 4.451166 32.310209 2.516661
2008-07-31 08:47:30 51°18.543 2°53.534 19.762 4.451166 32.310209 2.516661
2008-07-31 08:47:35 51°18.537 2°53.559 19.7681 4.450958 32.30435 2.516661
2008-07-31 08:47:40 51°18.532 2°53.584 19.7731 4.44992 32.291159 2.516661
2008-07-31 08:47:45 51°18.527 2°53.608 19.7779 4.450854 32.294568 2.551485
2008-07-31 08:47:50 51°18.521 2°53.632 19.7819 4.450335 32.286188 2.621133
2008-07-31 08:47:55 51°18.514 2°53.656 19.7867 4.450335 32.286188 2.621133
2008-07-31 08:48:00 51°18.508 2°53.68 19.7908 4.449712 32.276968 2.621133
2008-07-31 08:48:04 51°18.503 2°53.699 19.7961 4.449089 32.267156 2.655957
2008-07-31 08:48:10 51°18.496 2°53.729 19.8033 4.448674 32.25903 2.690782
2008-07-31 08:48:15 51°18.49 2°53.753 19.8084 4.447635 32.245859 2.655957
2008-07-31 08:48:20 51°18.484 2°53.777 19.8161 4.447116 32.238086 2.690782
2008-07-31 08:48:25 51°18.477 2°53.801 19.822 4.446805 32.23081 2.690782
2008-07-31 08:48:30 51°18.47 2°53.825 19.8293 4.446805 32.23081 2.690782
2008-07-31 08:48:35 51°18.464 2°53.849 19.8339 4.44587 32.219677 2.690782
2008-07-31 08:48:40 51°18.456 2°53.872 19.8407 4.445767 32.213495 2.655957
2008-07-31 08:48:44 51°18.451 2°53.891 19.8462 4.444417 32.197818 2.655957
2008-07-31 08:48:50 51°18.443 2°53.92 19.8547 4.444728 32.195004 2.655957
2008-07-31 08:48:55 51°18.436 2°53.943 19.8613 4.443898 32.182354 2.690782
2008-07-31 08:49:00 51°18.429 2°53.967 19.8661 4.443898 32.182354 2.690782
2008-07-31 08:49:05 51°18.423 2°53.991 19.8739 4.443898 32.177022 2.690782
2008-07-31 08:49:09 51°18.417 2°54.011 19.8833 4.442548 32.16018 2.690782
2008-07-31 08:49:15 51°18.41 2°54.039 19.8938 4.442444 32.153423 2.690782
2008-07-31 08:49:20 51°18.404 2°54.062 19.8995 4.441821 32.143062 2.725606
2008-07-31 08:49:24 51°18.399 2°54.079 19.9093 4.441821 32.143062 2.725606
2008-07-31 08:49:30 51°18.393 2°54.103 19.9165 4.441094 32.131865 2.690782
2008-07-31 08:49:35 51°18.387 2°54.122 19.9249 4.440783 32.123439 2.725606
2008-07-31 08:49:40 51°18.382 2°54.14 19.9311 4.440056 32.111659 2.76043
2008-07-31 08:49:45 51°18.376 2°54.158 19.9359 4.439537 32.099793 2.76043
2008-07-31 08:49:50 51°18.37 2°54.175 19.9392 4.439018 32.087932 2.76043
2008-07-31 08:49:55 51°18.365 2°54.192 19.9491 4.438291 32.07499 2.830078
2008-07-31 08:50:00 51°18.36 2°54.208 19.9544 4.438291 32.07499 2.830078
2008-07-31 08:50:05 51°18.355 2°54.224 19.9598 4.438083 32.066835 2.830078
2008-07-31 08:50:10 51°18.35 2°54.24 19.9637 4.437668 32.057596 2.830078
2008-07-31 08:50:15 51°18.345 2°54.255 19.9706 4.437356 32.047434 2.864902
2008-07-31 08:50:20 51°18.34 2°54.271 19.9765 4.437564 32.044405 2.830078
2008-07-31 08:50:25 51°18.336 2°54.286 19.9822 4.437356 32.037439 2.864902
2008-07-31 08:50:29 51°18.332 2°54.298 19.9884 4.437356 32.037439 2.864902
2008-07-31 08:50:35 51°18.327 2°54.317 19.9967 4.437044 32.029051 2.899726
2008-07-31 08:50:40 51°18.323 2°54.332 20.0007 4.436837 32.021503 2.899726
2008-07-31 08:50:45 51°18.319 2°54.347 20.0067 4.437044 32.018481 2.899726
2008-07-31 08:50:50 51°18.315 2°54.362 20.0091 4.437044 32.013786 2.93455
2008-07-31 08:50:55 51°18.31 2°54.378 20.0135 4.437252 32.010766 2.93455
2008-07-31 08:51:00 51°18.306 2°54.393 20.0157 4.437252 32.010766 2.93455
2008-07-31 08:51:05 51°18.303 2°54.408 20.0183 4.437355 32.005152 2.93455
2008-07-31 08:51:10 51°18.299 2°54.423 20.0214 4.437459 32.000126 2.969374
2008-07-31 08:51:15 51°18.295 2°54.438 20.0265 4.43777 31.997361 2.969374
2008-07-31 08:51:20 51°18.291 2°54.453 20.0337 4.438082 31.995183 2.969374
2008-07-31 08:51:25 51°18.287 2°54.468 20.0406 4.438082 31.995183 2.969374
2008-07-31 08:51:30 51°18.283 2°54.483 20.0462 4.438185 31.992505 3.004198
2008-07-31 08:51:35 51°18.28 2°54.498 20.0526 4.438289 31.989827 2.969374
2008-07-31 08:51:40 51°18.276 2°54.513 20.0571 4.438185 31.986063 2.969374
2008-07-31 08:51:45 51°18.273 2°54.528 20.0649 4.438601 31.985896 3.004198
2008-07-31 08:51:50 51°18.269 2°54.543 20.0738 4.438808 31.984056 3.039022
2008-07-31 08:51:55 51°18.266 2°54.558 20.0753 4.439016 31.981632 3.073846
2008-07-31 08:52:00 51°18.262 2°54.573 20.0856 4.439016 31.981632 3.073846
2008-07-31 08:52:05 51°18.259 2°54.588 20.0908 4.439327 31.978289 3.073846
2008-07-31 08:52:10 51°18.256 2°54.603 20.0969 4.439327 31.972441 3.143494
2008-07-31 08:52:14 51°18.253 2°54.615 20.1023 4.439742 31.970521 3.178318
2008-07-31 08:52:20 51°18.249 2°54.633 20.1102 4.439949 31.966348 3.213142
2008-07-31 08:52:25 51°18.247 2°54.648 20.1165 4.440053 31.961341 3.247966
2008-07-31 08:52:29 51°18.244 2°54.661 20.1232 4.440053 31.961341 3.247966
2008-07-31 08:52:35 51°18.241 2°54.679 20.1313 4.440364 31.95859 3.28279
2008-07-31 08:52:40 51°18.237 2°54.694 20.1382 4.440676 31.95584 3.317614
2008-07-31 08:52:45 51°18.235 2°54.709 20.1467 4.440883 31.952256 3.352439
2008-07-31 08:52:50 51°18.231 2°54.724 20.1534 4.441298 31.94976 3.387263
2008-07-31 08:52:54 51°18.229 2°54.736 20.1634 4.441714 31.947849 3.422087
2008-07-31 08:53:00 51°18.226 2°54.752 20.1682 4.441714 31.947849 3.422087
2008-07-31 08:53:05 51°18.223 2°54.764 20.174 4.442129 31.945355 3.491735
2008-07-31 08:53:10 51°18.221 2°54.775 20.179 4.442544 31.941696 3.526559
2008-07-31 08:53:14 51°18.219 2°54.783 20.1878 4.442855 31.937788 3.561383
2008-07-31 08:53:20 51°18.218 2°54.793 20.1956 4.443374 31.934967 3.596207
2008-07-31 08:53:25 51°18.217 2°54.8 20.2026 4.443685 31.930481 3.596207
2008-07-31 08:53:30 51°18.217 2°54.805 20.2111 4.443685 31.930481 3.596207
2008-07-31 08:53:35 51°18.216 2°54.809 20.2196 4.444308 31.929079 3.631031
2008-07-31 08:53:40 51°18.216 2°54.812 20.2283 4.444619 31.925178 3.596207
2008-07-31 08:53:45 51°18.216 2°54.813 20.2372 4.444827 31.921609 3.631031
2008-07-31 08:53:50 51°18.215 2°54.814 20.2428 4.445242 31.919126 3.631031
2008-07-31 08:53:55 51°18.214 2°54.814 20.2475 4.445657 31.916063 3.665855
2008-07-31 08:54:00 51°18.213 2°54.813 20.2509 4.445657 31.916063 3.665855
2008-07-31 08:54:05 51°18.211 2°54.811 20.2522 4.446072 31.912421 3.735503
2008-07-31 08:54:10 51°18.21 2°54.81 20.2539 4.446695 31.909865 3.805151
2008-07-31 08:54:15 51°18.208 2°54.808 20.2618 4.447421 31.908143 3.805151
2008-07-31 08:54:20 51°18.207 2°54.807 20.2641 4.44794 31.905918 3.874799
2008-07-31 08:54:25 51°18.205 2°54.806 20.2664 4.448252 31.902031 3.874799
2008-07-31 08:54:30 51°18.204 2°54.804 20.2687 4.448252 31.902031 3.874799
2008-07-31 08:54:34 51°18.203 2°54.803 20.2747 4.448978 31.903214 3.839975
2008-07-31 08:54:40 51°18.201 2°54.801 20.2783 4.449393 31.903061 3.874799
2008-07-31 08:54:45 51°18.199 2°54.799 20.2814 4.449809 31.902908 3.944447
2008-07-31 08:54:50 51°18.197 2°54.797 20.2832 4.450016 31.901092 3.909623
2008-07-31 08:54:56 51°18.195 2°54.795 20.2842 4.450016 31.901092 3.909623
2008-07-31 08:55:02 51°18.193 2°54.792 20.2866 4.450431 31.90036 3.944447
2008-07-31 08:55:07 51°18.191 2°54.791 20.2864 4.450639 31.899125 3.944447
2008-07-31 08:55:13 51°18.189 2°54.788 20.2866 4.450846 31.89731 3.979271
2008-07-31 08:55:17 51°18.187 2°54.787 20.2865 4.451158 31.896907 3.944447
2008-07-31 08:55:23 51°18.185 2°54.784 20.285 4.451365 31.895672 3.909623
2008-07-31 08:55:28 51°18.183 2°54.782 20.2826 4.451677 31.895849 3.944447
2008-07-31 08:55:33 51°18.181 2°54.78 20.2822 4.451677 31.895849 3.944447
2008-07-31 08:55:38 51°18.179 2°54.778 20.2814 4.451677 31.89411 3.909623
2008-07-31 08:55:43 51°18.177 2°54.777 20.2798 4.451884 31.894035 3.909623
2008-07-31 08:55:47 51°18.176 2°54.775 20.2777 4.452092 31.894539 3.874799
2008-07-31 08:55:53 51°18.174 2°54.773 20.2761 4.452092 31.894539 3.874799
2008-07-31 08:55:57 51°18.173 2°54.771 20.2753 4.451988 31.893708 3.805151
2008-07-31 08:56:02 51°18.171 2°54.769 20.2712 4.451988 31.893708 3.805151
2008-07-31 08:56:07 51°18.17 2°54.767 20.2699 4.451988 31.894866 3.839975
2008-07-31 08:56:12 51°18.169 2°54.766 20.2675 4.451781 31.893783 3.805151
2008-07-31 08:56:17 51°18.168 2°54.765 20.2665 4.451781 31.894942 3.770327
2008-07-31 08:56:22 51°18.168 2°54.764 20.2642 4.451677 31.895269 3.770327
2008-07-31 08:56:26 51°18.167 2°54.763 20.2629 4.451573 31.895017 3.770327
2008-07-31 08:56:32 51°18.167 2°54.763 20.2621 4.451573 31.895017 3.770327
2008-07-31 08:56:37 51°18.167 2°54.763 20.2622 4.451365 31.895093 3.735503
2008-07-31 08:56:43 51°18.167 2°54.764 20.2625 4.451158 31.895168 3.665855
2008-07-31 08:56:48 51°18.168 2°54.764 20.2626 4.451054 31.896075 3.665855
2008-07-31 08:56:53 51°18.168 2°54.765 20.2617 4.450846 31.895571 3.665855
2008-07-31 08:56:58 51°18.168 2°54.765 20.2618 4.450743 31.896478 3.631031
2008-07-31 08:57:02 51°18.168 2°54.766 20.2616 4.450743 31.896478 3.631031
2008-07-31 08:57:07 51°18.168 2°54.766 20.2615 4.450535 31.895395 3.631031
2008-07-31 08:57:12 51°18.169 2°54.767 20.2613 4.450535 31.896554 3.665855
2008-07-31 08:57:17 51°18.169 2°54.768 20.2625 4.450431 31.896302 3.631031
2008-07-31 08:57:22 51°18.169 2°54.768 20.2624 4.450535 31.897134 3.631031
2008-07-31 08:57:27 51°18.169 2°54.769 20.2624 4.450327 31.895471 3.631031
2008-07-31 08:57:32 51°18.169 2°54.769 20.2632 4.450327 31.895471 3.631031
2008-07-31 08:57:37 51°18.169 2°54.77 20.2636 4.450327 31.895471 3.631031
2008-07-31 08:57:41 51°18.169 2°54.77 20.2635 4.450224 31.895219 3.596207
2008-07-31 08:57:46 51°18.169 2°54.771 20.2639 4.450224 31.895219 3.631031
2008-07-31 08:57:51 51°18.169 2°54.771 20.2641 4.450224 31.894639 3.631031
2008-07-31 08:57:56 51°18.169 2°54.771 20.2639 4.450016 31.892976 3.665855
2008-07-31 08:58:01 51°18.169 2°54.772 20.2638 4.450016 31.892976 3.665855
2008-07-31 08:58:05 51°18.169 2°54.772 20.2648 4.450224 31.894639 3.596207
2008-07-31 08:58:10 51°18.169 2°54.772 20.2681 4.450224 31.894639 3.596207
2008-07-31 08:58:15 51°18.169 2°54.773 20.2703 4.450016 31.892976 3.561383
2008-07-31 08:58:20 51°18.169 2°54.773 20.27 4.450224 31.894059 3.561383
2008-07-31 08:58:25 51°18.169 2°54.773 20.2718 4.450224 31.894059 3.561383
2008-07-31 08:58:30 51°18.169 2°54.773 20.2716 4.450224 31.894059 3.561383
2008-07-31 08:58:34 51°18.169 2°54.773 20.2709 4.450224 31.894059 3.561383
2008-07-31 08:58:40 51°18.169 2°54.773 20.2708 4.450224 31.89348 3.561383
2008-07-31 08:58:45 51°18.169 2°54.773 20.2706 4.450327 31.892573 3.561383
2008-07-31 08:58:49 51°18.169 2°54.773 20.2706 4.450431 31.892825 3.596207
2008-07-31 08:58:55 51°18.169 2°54.773 20.2708 4.450535 31.892497 3.631031
2008-07-31 08:59:00 51°18.169 2°54.772 20.2697 4.450535 31.892497 3.631031
2008-07-31 08:59:05 51°18.169 2°54.772 20.268 4.450639 31.89217 3.596207
2008-07-31 08:59:10 51°18.169 2°54.772 20.2678 4.450743 31.892422 3.631031
2008-07-31 08:59:15 51°18.169 2°54.772 20.2658 4.450743 31.892422 3.665855
2008-07-31 08:59:20 51°18.169 2°54.771 20.2655 4.450743 31.892422 3.596207
2008-07-31 08:59:25 51°18.169 2°54.771 20.2657 4.450743 31.893001 3.631031
2008-07-31 08:59:30 51°18.169 2°54.771 20.2653 4.450743 31.893001 3.631031
2008-07-31 08:59:34 51°18.168 2°54.77 20.2639 4.450743 31.893001 3.596207
2008-07-31 08:59:40 51°18.168 2°54.77 20.2656 4.450743 31.893581 3.596207
2008-07-31 08:59:45 51°18.168 2°54.77 20.266 4.450535 31.891918 3.596207
2008-07-31 08:59:50 51°18.168 2°54.769 20.2633 4.450535 31.893077 3.561383
2008-07-31 08:59:54 51°18.168 2°54.769 20.2636 4.450639 31.894488 3.526559
2008-07-31 09:00:00 51°18.168 2°54.768 20.2623 4.450639 31.894488 3.526559
2008-07-31 09:00:05 51°18.168 2°54.768 20.2628 4.450535 31.894236 3.561383
2008-07-31 09:00:10 51°18.168 2°54.767 20.2625 4.450535 31.894815 3.526559
2008-07-31 09:00:15 51°18.168 2°54.767 20.2632 4.450535 31.894815 3.526559
2008-07-31 09:00:20 51°18.168 2°54.766 20.2629 4.450535 31.895395 3.526559
2008-07-31 09:00:25 51°18.168 2°54.766 20.2622 4.450535 31.895395 3.526559
2008-07-31 09:00:30 51°18.168 2°54.766 20.2607 4.450535 31.895395 3.526559
2008-07-31 09:00:34 51°18.168 2°54.765 20.2588 4.450535 31.895975 3.526559
2008-07-31 09:00:40 51°18.168 2°54.765 20.258 4.450431 31.895143 3.491735
2008-07-31 09:00:45 51°18.168 2°54.765 20.2572 4.450431 31.895723 3.491735
2008-07-31 09:00:50 51°18.168 2°54.765 20.2581 4.439324 31.806761 3.526559
2008-07-31 09:00:55 51°18.168 2°54.765 20.2593 4.450431 31.895723 3.526559
2008-07-31 09:01:00 51°18.168 2°54.765 20.2592 4.450431 31.895723 3.526559
2008-07-31 09:01:05 51°18.168 2°54.765 20.261 4.450327 31.894891 3.526559
2008-07-31 09:01:09 51°18.168 2°54.765 20.26 4.45012 31.894967 3.491735
2008-07-31 09:01:14 51°18.168 2°54.765 20.2611 4.45012 31.894967 3.526559
2008-07-31 09:01:20 51°18.169 2°54.765 20.259 4.45012 31.896126 3.526559
2008-07-31 09:01:25 51°18.169 2°54.765 20.2588 4.45012 31.896126 3.526559
2008-07-31 09:01:30 51°18.169 2°54.765 20.2567 4.45012 31.896126 3.491735
2008-07-31 09:01:34 51°18.169 2°54.765 20.2572 4.45012 31.896126 3.526559
2008-07-31 09:01:40 51°18.169 2°54.766 20.2551 4.45012 31.895546 3.526559
2008-07-31 09:01:45 51°18.169 2°54.766 20.2544 4.45012 31.895546 3.526559
2008-07-31 09:01:50 51°18.169 2°54.766 20.2575 4.45012 31.895546 3.526559
2008-07-31 09:01:54 51°18.169 2°54.766 20.2637 4.45012 31.895546 3.526559
2008-07-31 09:02:00 51°18.17 2°54.766 20.2693 4.450224 31.895798 3.491735
2008-07-31 09:02:05 51°18.17 2°54.766 20.2769 4.45012 31.896126 3.491735
2008-07-31 09:02:10 51°18.17 2°54.766 20.283 4.450016 31.896454 3.456911
2008-07-31 09:02:15 51°18.17 2°54.766 20.2911 4.450016 31.897033 3.491735
2008-07-31 09:02:20 51°18.17 2°54.766 20.296 4.450016 31.897033 3.561383
2008-07-31 09:02:25 51°18.17 2°54.766 20.3034 4.450016 31.897033 3.561383
2008-07-31 09:02:30 51°18.17 2°54.766 20.308 4.450016 31.895294 3.561383
2008-07-31 09:02:34 51°18.17 2°54.766 20.3116 4.450224 31.894059 3.631031
2008-07-31 09:02:40 51°18.17 2°54.766 20.3142 4.450535 31.891338 3.735503
2008-07-31 09:02:45 51°18.17 2°54.766 20.3154 4.450743 31.887787 3.770327
2008-07-31 09:02:50 51°18.17 2°54.766 20.3151 4.451158 31.885899 3.839975
2008-07-31 09:02:55 51°18.17 2°54.766 20.3141 4.451677 31.884265 3.909623
2008-07-31 09:03:00 51°18.17 2°54.766 20.3111 4.451677 31.884265 3.909623
2008-07-31 09:03:05 51°18.17 2°54.766 20.3113 4.452092 31.883537 3.909623
2008-07-31 09:03:10 51°18.17 2°54.766 20.3094 4.452507 31.88223 3.909623
2008-07-31 09:03:15 51°18.17 2°54.766 20.3078 4.452818 31.881829 3.909623
2008-07-31 09:03:20 51°18.17 2°54.766 20.304 4.453026 31.881176 3.874799
2008-07-31 09:03:25 51°18.17 2°54.766 20.3036 4.453026 31.881176 3.874799
2008-07-31 09:03:29 51°18.17 2°54.766 20.3041 4.453233 31.882259 3.839975
2008-07-31 09:03:34 51°18.17 2°54.766 20.3026 4.453233 31.882838 3.805151
2008-07-31 09:03:40 51°18.17 2°54.766 20.303 4.453337 31.88309 3.770327
2008-07-31 09:03:45 51°18.17 2°54.766 20.3049 4.453337 31.884247 3.770327
2008-07-31 09:03:50 51°18.17 2°54.766 20.3044 4.45313 31.883743 3.735503
2008-07-31 09:03:54 51°18.17 2°54.766 20.3055 4.45313 31.883743 3.735503
2008-07-31 09:04:00 51°18.17 2°54.766 20.3058 4.45313 31.8849 3.735503
2008-07-31 09:04:05 51°18.17 2°54.766 20.305 4.45313 31.885479 3.735503
2008-07-31 09:04:10 51°18.17 2°54.765 20.3041 4.453026 31.885806 3.805151
2008-07-31 09:04:15 51°18.17 2°54.766 20.3035 4.453026 31.885806 3.874799
2008-07-31 09:04:20 51°18.17 2°54.765 20.3039 4.453026 31.885806 3.909623
2008-07-31 09:04:25 51°18.17 2°54.766 20.3025 4.453026 31.885227 3.909623
2008-07-31 09:04:30 51°18.169 2°54.765 20.3035 4.453026 31.885227 3.909623
2008-07-31 09:04:34 51°18.169 2°54.765 20.3045 4.453026 31.885227 3.944447
2008-07-31 09:04:40 51°18.169 2°54.765 20.303 4.453026 31.885227 3.979271
2008-07-31 09:04:45 51°18.169 2°54.765 20.3023 4.453026 31.885227 4.014096
2008-07-31 09:04:50 51°18.169 2°54.765 20.3031 4.452922 31.884975 3.944447
2008-07-31 09:04:55 51°18.169 2°54.765 20.3022 4.453026 31.885806 3.944447
2008-07-31 09:05:00 51°18.169 2°54.765 20.304 4.453026 31.885806 3.944447
2008-07-31 09:05:05 51°18.169 2°54.765 20.307 4.452922 31.884975 3.909623
2008-07-31 09:05:10 51°18.169 2°54.765 20.311 4.452922 31.885554 3.839975
2008-07-31 09:05:14 51°18.169 2°54.765 20.3127 4.452922 31.884975 3.839975
2008-07-31 09:05:20 51°18.169 2°54.765 20.3168 4.452922 31.885554 3.805151
2008-07-31 09:05:25 51°18.169 2°54.765 20.3189 4.452818 31.884723 3.770327
2008-07-31 09:05:29 51°18.169 2°54.765 20.3214 4.452818 31.884723 3.770327
2008-07-31 09:05:35 51°18.169 2°54.766 20.326 4.452818 31.884723 3.735503
2008-07-31 09:05:40 51°18.169 2°54.766 20.3295 4.452818 31.882987 3.735503
2008-07-31 09:05:45 51°18.169 2°54.766 20.3351 4.452922 31.882081 3.735503
2008-07-31 09:05:50 51°18.169 2°54.766 20.3393 4.45313 31.88085 3.700679
2008-07-31 09:05:54 51°18.169 2°54.766 20.342 4.45313 31.88085 3.700679
2008-07-31 09:06:00 51°18.169 2°54.766 20.3442 4.453337 31.880776 3.665855
2008-07-31 09:06:05 51°18.169 2°54.766 20.3462 4.453441 31.879293 3.665855
2008-07-31 09:06:10 51°18.169 2°54.766 20.3493 4.453649 31.878062 3.700679
2008-07-31 09:06:14 51°18.169 2°54.766 20.3518 4.45396 31.877662 3.735503
2008-07-31 09:06:20 51°18.169 2°54.766 20.3533 4.454271 31.876105 3.735503
2008-07-31 09:06:25 51°18.17 2°54.767 20.3538 4.454479 31.874876 3.770327
2008-07-31 09:06:30 51°18.17 2°54.767 20.3562 4.454479 31.874876 3.770327
2008-07-31 09:06:34 51°18.17 2°54.767 20.3578 4.45479 31.874476 3.770327
2008-07-31 09:06:40 51°18.171 2°54.768 20.3603 4.455102 31.874655 3.770327
2008-07-31 09:06:45 51°18.171 2°54.768 20.3615 4.455413 31.874834 3.805151
2008-07-31 09:06:50 51°18.172 2°54.769 20.3615 4.455517 31.873352 3.805151
2008-07-31 09:06:55 51°18.173 2°54.77 20.3633 4.455932 31.874939 3.805151
2008-07-31 09:07:00 51°18.173 2°54.77 20.3672 4.455932 31.874939 3.805151
2008-07-31 09:07:05 51°18.174 2°54.771 20.3676 4.456036 31.874614 3.805151
2008-07-31 09:07:10 51°18.175 2°54.771 20.3676 4.456243 31.873963 3.805151
2008-07-31 09:07:14 51°18.175 2°54.772 20.3672 4.456451 31.874467 3.770327
2008-07-31 09:07:20 51°18.176 2°54.773 20.3673 4.456659 31.874394 3.805151
2008-07-31 09:07:25 51°18.177 2°54.774 20.3676 4.456659 31.874394 3.805151
2008-07-31 09:07:30 51°18.178 2°54.774 20.369 4.456762 31.874068 3.770327
2008-07-31 09:07:35 51°18.179 2°54.775 20.3702 4.45697 31.873995 3.735503
2008-07-31 09:07:40 51°18.18 2°54.776 20.3721 4.457074 31.87367 3.805151
2008-07-31 09:07:45 51°18.181 2°54.777 20.3753 4.457178 31.873922 3.770327
2008-07-31 09:07:50 51°18.181 2°54.779 20.3765 4.457281 31.874174 3.770327
2008-07-31 09:07:55 51°18.182 2°54.78 20.3781 4.457281 31.873597 3.770327
2008-07-31 09:08:00 51°18.183 2°54.781 20.3789 4.457281 31.873597 3.770327
2008-07-31 09:08:05 51°18.184 2°54.783 20.381 4.457385 31.874427 3.805151
2008-07-31 09:08:10 51°18.185 2°54.784 20.3826 4.457489 31.874101 3.805151
2008-07-31 09:08:14 51°18.186 2°54.785 20.3842 4.457489 31.872369 3.839975
2008-07-31 09:08:20 51°18.187 2°54.787 20.3866 4.457697 31.872296 3.874799
2008-07-31 09:08:25 51°18.188 2°54.788 20.3879 4.4578 31.871971 3.874799
2008-07-31 09:08:29 51°18.188 2°54.789 20.3896 4.4578 31.871971 3.874799
2008-07-31 09:08:35 51°18.189 2°54.791 20.3919 4.457904 31.871646 3.909623
2008-07-31 09:08:40 51°18.19 2°54.792 20.3919 4.458112 31.871573 3.909623
2008-07-31 09:08:45 51°18.191 2°54.794 20.3904 4.458215 31.870671 3.944447
2008-07-31 09:08:50 51°18.192 2°54.795 20.3903 4.458319 31.870346 3.944447
2008-07-31 09:08:54 51°18.193 2°54.797 20.3896 4.458527 31.870273 3.979271
2008-07-31 09:09:00 51°18.194 2°54.798 20.3896 4.458527 31.870273 3.979271
2008-07-31 09:09:05 51°18.195 2°54.8 20.39 4.458631 31.869948 4.014096
2008-07-31 09:09:10 51°18.196 2°54.801 20.3896 4.458838 31.869876 3.979271
2008-07-31 09:09:15 51°18.197 2°54.802 20.3878 4.458942 31.870128 3.979271
2008-07-31 09:09:20 51°18.198 2°54.804 20.3851 4.459046 31.87038 4.014096
2008-07-31 09:09:25 51°18.199 2°54.805 20.3827 4.459046 31.87038 4.014096
2008-07-31 09:09:30 51°18.2 2°54.806 20.3783 4.459046 31.87038 3.979271
2008-07-31 09:09:35 51°18.201 2°54.807 20.3739 4.459046 31.87038 3.979271
2008-07-31 09:09:40 51°18.201 2°54.809 20.3708 4.45915 31.87121 3.979271
2008-07-31 09:09:45 51°18.202 2°54.81 20.3658 4.45915 31.87121 3.979271
2008-07-31 09:09:50 51°18.203 2°54.811 20.3615 4.459046 31.871534 3.909623
2008-07-31 09:09:55 51°18.204 2°54.812 20.3605 4.458942 31.873014 3.874799
2008-07-31 09:10:00 51°18.204 2°54.813 20.3565 4.458942 31.873014 3.874799
2008-07-31 09:10:05 51°18.205 2°54.814 20.3559 4.458734 31.873086 3.839975
2008-07-31 09:10:09 51°18.206 2°54.815 20.3544 4.458527 31.874314 3.770327
2008-07-31 09:10:15 51°18.207 2°54.817 20.3528 4.458216 31.874712 3.770327
2008-07-31 09:10:20 51°18.207 2°54.818 20.3524 4.458112 31.876192 3.735503
2008-07-31 09:10:25 51°18.208 2°54.819 20.352 4.457697 31.875761 3.700679
2008-07-31 09:10:30 51°18.209 2°54.819 20.3519 4.457697 31.875761 3.700679
2008-07-31 09:10:34 51°18.21 2°54.82 20.3525 4.457489 31.876989 3.735503
2008-07-31 09:10:40 51°18.211 2°54.821 20.3542 4.457281 31.87764 3.735503
2008-07-31 09:10:45 51°18.212 2°54.822 20.3528 4.456866 31.876054 3.770327
2008-07-31 09:10:50 51°18.213 2°54.823 20.3519 4.456659 31.876127 3.805151
2008-07-31 09:10:54 51°18.213 2°54.824 20.3509 4.456451 31.875045 3.805151
2008-07-31 09:11:00 51°18.214 2°54.824 20.3514 4.456451 31.875045 3.805151
2008-07-31 09:11:05 51°18.215 2°54.825 20.3498 4.456347 31.87537 3.770327
2008-07-31 09:11:10 51°18.216 2°54.826 20.3492 4.456347 31.87537 3.805151
2008-07-31 09:11:15 51°18.218 2°54.827 20.3499 4.456347 31.874793 3.805151
2008-07-31 09:11:20 51°18.22 2°54.827 20.3495 4.456243 31.87454 3.839975
2008-07-31 09:11:25 51°18.222 2°54.828 20.351 4.45614 31.874288 3.839975
2008-07-31 09:11:30 51°18.224 2°54.828 20.3507 4.45614 31.874288 3.839975
2008-07-31 09:11:34 51°18.225 2°54.828 20.3532 4.456036 31.873458 3.839975
2008-07-31 09:11:40 51°18.228 2°54.828 20.3524 4.456036 31.874036 3.805151
2008-07-31 09:11:45 51°18.231 2°54.827 20.355 4.455932 31.873784 3.805151
2008-07-31 09:11:50 51°18.234 2°54.825 20.3588 4.455828 31.872954 3.770327
2008-07-31 09:11:55 51°18.237 2°54.824 20.3628 4.455828 31.873531 3.735503
2008-07-31 09:12:00 51°18.241 2°54.822 20.3654 4.455828 31.873531 3.735503
2008-07-31 09:12:05 51°18.244 2°54.82 20.3667 4.455828 31.872954 3.770327
2008-07-31 09:12:09 51°18.247 2°54.819 20.3686 4.455828 31.872376 3.805151
2008-07-31 09:12:15 51°18.252 2°54.817 20.3699 4.455828 31.871798 3.874799
2008-07-31 09:12:20 51°18.256 2°54.816 20.3699 4.455932 31.871473 3.874799
2008-07-31 09:12:25 51°18.261 2°54.814 20.3705 4.455932 31.871473 3.874799
2008-07-31 09:12:30 51°18.266 2°54.812 20.3706 4.45614 31.870822 3.909623
2008-07-31 09:12:35 51°18.272 2°54.81 20.3712 4.456347 31.870171 3.944447
2008-07-31 09:12:40 51°18.279 2°54.807 20.3696 4.456451 31.868114 3.979271
2008-07-31 09:12:45 51°18.286 2°54.805 20.3681 4.456658 31.868618 3.979271
2008-07-31 09:12:50 51°18.294 2°54.801 20.3617 4.456658 31.866886 4.014096
2008-07-31 09:12:55 51°18.302 2°54.798 20.3514 4.456658 31.866309 3.979271
2008-07-31 09:13:00 51°18.31 2°54.795 20.3477 4.456658 31.866309 3.979271
2008-07-31 09:13:05 51°18.318 2°54.791 20.3427 4.456658 31.865731 4.014096
2008-07-31 09:13:10 51°18.327 2°54.787 20.3406 4.456762 31.865984 3.979271
2008-07-31 09:13:14 51°18.334 2°54.784 20.3394 4.456555 31.864902 3.979271
2008-07-31 09:13:20 51°18.345 2°54.779 20.3373 4.456555 31.866634 3.909623
2008-07-31 09:13:25 51°18.354 2°54.774 20.3333 4.456139 31.866779 3.909623
2008-07-31 09:13:30 51°18.364 2°54.769 20.3286 4.456139 31.866779 3.909623
2008-07-31 09:13:35 51°18.373 2°54.765 20.3238 4.455724 31.866925 3.874799
2008-07-31 09:13:40 51°18.383 2°54.76 20.3152 4.455102 31.867144 3.909623
2008-07-31 09:13:45 51°18.393 2°54.757 20.3024 4.454894 31.86895 3.909623
2008-07-31 09:13:50 51°18.403 2°54.753 20.2954 4.454479 31.86794 3.874799
2008-07-31 09:13:54 51°18.411 2°54.75 20.2874 4.454375 31.868844 3.909623
2008-07-31 09:14:00 51°18.423 2°54.746 20.28 4.454375 31.868844 3.909623
2008-07-31 09:14:05 51°18.433 2°54.742 20.2709 4.454167 31.870073 3.839975
2008-07-31 09:14:10 51°18.444 2°54.739 20.2721 4.453752 31.870219 3.839975
2008-07-31 09:14:15 51°18.454 2°54.735 20.2583 4.453233 31.871848 3.805151
2008-07-31 09:14:20 51°18.464 2°54.731 20.255 4.452611 31.874383 3.770327
2008-07-31 09:14:25 51°18.474 2°54.726 20.2461 4.451676 31.874426 3.735503
2008-07-31 09:14:30 51°18.485 2°54.722 20.2393 4.451676 31.874426 3.735503
2008-07-31 09:14:35 51°18.495 2°54.718 20.2356 4.45095 31.875554 3.700679
2008-07-31 09:14:40 51°18.505 2°54.714 20.2303 4.450223 31.873788 3.631031
2008-07-31 09:14:45 51°18.514 2°54.71 20.2246 4.449704 31.876579 3.596207
2008-07-31 09:14:50 51°18.522 2°54.707 20.226 4.449082 31.876802 3.596207
2008-07-31 09:14:55 51°18.531 2°54.704 20.2183 4.448355 31.876774 3.526559
2008-07-31 09:15:00 51°18.538 2°54.701 20.2117 4.448355 31.876774 3.526559
2008-07-31 09:15:05 51°18.546 2°54.699 20.2065 4.447421 31.875663 3.526559
2008-07-31 09:15:09 51°18.551 2°54.697 20.2043 4.447006 31.877551 3.526559
2008-07-31 09:15:14 51°18.558 2°54.696 20.2011 4.446175 31.876692 3.491735
2008-07-31 09:15:20 51°18.565 2°54.694 20.192 4.445449 31.874926 3.491735
2008-07-31 09:15:25 51°18.571 2°54.692 20.1921 4.444618 31.872328 3.456911
2008-07-31 09:15:30 51°18.576 2°54.69 20.1876 4.444618 31.872328 3.456911
2008-07-31 09:15:35 51°18.582 2°54.688 20.1873 4.444203 31.873638 3.456911
2008-07-31 09:15:40 51°18.587 2°54.686 20.1836 4.443684 31.873536 3.387263
2008-07-31 09:15:45 51°18.592 2°54.684 20.1843 4.443165 31.874014 3.422087
2008-07-31 09:15:50 51°18.597 2°54.683 20.181 4.442646 31.873333 3.387263
2008-07-31 09:15:54 51°18.6 2°54.681 20.1803 4.442127 31.873812 3.387263
2008-07-31 09:16:00 51°18.606 2°54.679 20.1798 4.442127 31.873812 3.387263
2008-07-31 09:16:05 51°18.61 2°54.678 20.1799 4.441712 31.873383 3.352439
2008-07-31 09:16:10 51°18.614 2°54.676 20.1782 4.441089 31.871288 3.387263
2008-07-31 09:16:15 51°18.618 2°54.675 20.1786 4.440986 31.872777 3.387263
2008-07-31 09:16:20 51°18.622 2°54.674 20.1774 4.44057 31.871187 3.352439
2008-07-31 09:16:25 51°18.626 2°54.672 20.1761 4.440363 31.871263 3.317614
2008-07-31 09:16:30 51°18.63 2°54.671 20.1743 4.440363 31.871263 3.317614
2008-07-31 09:16:35 51°18.633 2°54.67 20.1739 4.440363 31.871263 3.352439
2008-07-31 09:16:40 51°18.637 2°54.669 20.1709 4.440155 31.870758 3.317614
2008-07-31 09:16:45 51°18.641 2°54.667 20.1672 4.439948 31.870253 3.317614
2008-07-31 09:16:50 51°18.644 2°54.666 20.168 4.439948 31.870834 3.317614
2008-07-31 09:16:55 51°18.647 2°54.665 20.1651 4.439844 31.871162 3.28279
2008-07-31 09:17:00 51°18.651 2°54.664 20.1629 4.439844 31.871162 3.28279
2008-07-31 09:17:05 51°18.654 2°54.663 20.1628 4.439532 31.869244 3.28279
2008-07-31 09:17:09 51°18.656 2°54.662 20.1618 4.439636 31.871238 3.28279
2008-07-31 09:17:15 51°18.66 2°54.661 20.1615 4.439429 31.870152 3.28279
2008-07-31 09:17:20 51°18.663 2°54.66 20.1623 4.439325 31.871642 3.247966
2008-07-31 09:17:25 51°18.666 2°54.659 20.1592 4.439117 31.871718 3.247966
2008-07-31 09:17:30 51°18.669 2°54.658 20.1591 4.439117 31.871718 3.247966
2008-07-31 09:17:34 51°18.671 2°54.658 20.1598 4.438806 31.871541 3.247966
2008-07-31 09:17:40 51°18.675 2°54.656 20.1587 4.438702 31.87187 3.247966
2008-07-31 09:17:45 51°18.677 2°54.656 20.1571 4.438598 31.872198 3.213142
2008-07-31 09:17:50 51°18.68 2°54.654 20.1564 4.438495 31.871946 3.213142
2008-07-31 09:17:54 51°18.682 2°54.654 20.1563 4.438495 31.871946 3.213142
2008-07-31 09:18:00 51°18.685 2°54.652 20.1594 4.438391 31.871693 3.143494
2008-07-31 09:18:05 51°18.688 2°54.651 20.1552 4.438495 31.873107 3.178318
2008-07-31 09:18:10 51°18.69 2°54.65 20.1573 4.438391 31.872274 3.178318
2008-07-31 09:18:14 51°18.692 2°54.649 20.155 4.438391 31.873436 3.178318
2008-07-31 09:18:20 51°18.695 2°54.648 20.1556 4.438183 31.872931 3.178318
2008-07-31 09:18:25 51°18.697 2°54.647 20.1568 4.438183 31.872931 3.178318
2008-07-31 09:18:30 51°18.7 2°54.646 20.1564 4.438183 31.874093 3.143494
2008-07-31 09:18:34 51°18.702 2°54.645 20.1548 4.438183 31.873512 3.178318
2008-07-31 09:18:40 51°18.705 2°54.644 20.1535 4.438183 31.874093 3.143494
2008-07-31 09:18:45 51°18.707 2°54.643 20.1536 4.438183 31.874093 3.143494
2008-07-31 09:18:50 51°18.709 2°54.642 20.1541 4.438183 31.873512 3.10867
2008-07-31 09:18:55 51°18.711 2°54.641 20.1548 4.438287 31.874926 3.10867
2008-07-31 09:19:00 51°18.714 2°54.64 20.1559 4.438287 31.874926 3.10867
2008-07-31 09:19:05 51°18.716 2°54.639 20.1542 4.438287 31.874926 3.10867
2008-07-31 09:19:10 51°18.718 2°54.639 20.1564 4.438287 31.875507 3.073846
2008-07-31 09:19:15 51°18.72 2°54.638 20.1578 4.438079 31.875002 3.10867
2008-07-31 09:19:20 51°18.722 2°54.637 20.1593 4.438183 31.876417 3.073846
2008-07-31 09:19:25 51°18.724 2°54.636 20.1613 4.438183 31.876417 3.073846
2008-07-31 09:19:30 51°18.726 2°54.635 20.1594 4.438183 31.876417 3.073846
2008-07-31 09:19:35 51°18.729 2°54.634 20.1599 4.438287 31.876669 3.073846
2008-07-31 09:19:40 51°18.731 2°54.633 20.1589 4.438183 31.875836 3.039022
2008-07-31 09:19:45 51°18.732 2°54.632 20.1604 4.438287 31.876088 3.039022
2008-07-31 09:19:50 51°18.735 2°54.631 20.1616 4.438391 31.875759 3.039022
2008-07-31 09:19:54 51°18.736 2°54.63 20.1608 4.438391 31.875759 3.039022
2008-07-31 09:20:00 51°18.738 2°54.629 20.1595 4.438598 31.876264 3.039022
2008-07-31 09:20:05 51°18.74 2°54.627 20.1595 4.438702 31.876516 3.073846
2008-07-31 09:20:10 51°18.742 2°54.626 20.1578 4.438702 31.876516 3.039022